<?xml version="1.0" encoding="UTF-8" standalone="no" ?>
<gpx xmlns="http://www.topografix.com/GPX/1/1" xmlns:xsi="http://www.w3.org/2001/XMLSchema-instance" xsi:schemaLocation="http://www.topografix.com/GPX/1/1 http://www.topografix.com/GPX/1/1/gpx.xsd" version="1.1" creator="VisuGPX - https://www.visugpx.com">
  <metadata>
    <name>Les Airelles </name>
    <desc><![CDATA[Boucle facile à partir des Airelles ]]></desc>
  </metadata>
  <trk>
    <name><![CDATA[2019-08-01 15-16]]></name>
    <trkseg>
      <trkpt lat="42.51996" lon="2.03261">
        <ele>1937.6</ele>
        <time>2019-08-01T13:16:40Z</time>
      </trkpt>
      <trkpt lat="42.51995" lon="2.0326">
        <ele>1937.6</ele>
        <time>2019-08-01T13:16:45Z</time>
      </trkpt>
      <trkpt lat="42.51995" lon="2.03259">
        <ele>1938.8</ele>
        <time>2019-08-01T13:16:51Z</time>
      </trkpt>
      <trkpt lat="42.51996" lon="2.03253">
        <ele>1939.2</ele>
        <time>2019-08-01T13:16:56Z</time>
      </trkpt>
      <trkpt lat="42.51995" lon="2.03248">
        <ele>1942.4</ele>
        <time>2019-08-01T13:17:01Z</time>
      </trkpt>
      <trkpt lat="42.51994" lon="2.03237">
        <ele>1943.4</ele>
        <time>2019-08-01T13:17:06Z</time>
      </trkpt>
      <trkpt lat="42.52" lon="2.03234">
        <ele>1946.4</ele>
        <time>2019-08-01T13:17:12Z</time>
      </trkpt>
      <trkpt lat="42.52002" lon="2.03229">
        <ele>1944.8</ele>
        <time>2019-08-01T13:17:17Z</time>
      </trkpt>
      <trkpt lat="42.52005" lon="2.03225">
        <ele>1945.4</ele>
        <time>2019-08-01T13:17:22Z</time>
      </trkpt>
      <trkpt lat="42.52006" lon="2.0322">
        <ele>1945.8</ele>
        <time>2019-08-01T13:17:27Z</time>
      </trkpt>
      <trkpt lat="42.5201" lon="2.03216">
        <ele>1946.6</ele>
        <time>2019-08-01T13:17:32Z</time>
      </trkpt>
      <trkpt lat="42.52012" lon="2.03212">
        <ele>1950.6</ele>
        <time>2019-08-01T13:17:37Z</time>
      </trkpt>
      <trkpt lat="42.52014" lon="2.03206">
        <ele>1951.4</ele>
        <time>2019-08-01T13:17:42Z</time>
      </trkpt>
      <trkpt lat="42.52016" lon="2.032">
        <ele>1947.6</ele>
        <time>2019-08-01T13:17:47Z</time>
      </trkpt>
      <trkpt lat="42.52019" lon="2.03195">
        <ele>1949.2</ele>
        <time>2019-08-01T13:17:52Z</time>
      </trkpt>
      <trkpt lat="42.52022" lon="2.0319">
        <ele>1949.4</ele>
        <time>2019-08-01T13:17:57Z</time>
      </trkpt>
      <trkpt lat="42.52025" lon="2.03185">
        <ele>1949.6</ele>
        <time>2019-08-01T13:18:02Z</time>
      </trkpt>
      <trkpt lat="42.52027" lon="2.03179">
        <ele>1950.4</ele>
        <time>2019-08-01T13:18:07Z</time>
      </trkpt>
      <trkpt lat="42.52029" lon="2.03173">
        <ele>1950.2</ele>
        <time>2019-08-01T13:18:12Z</time>
      </trkpt>
      <trkpt lat="42.52032" lon="2.03171">
        <ele>1950.8</ele>
        <time>2019-08-01T13:18:17Z</time>
      </trkpt>
      <trkpt lat="42.52036" lon="2.03171">
        <ele>1952.6</ele>
        <time>2019-08-01T13:18:22Z</time>
      </trkpt>
      <trkpt lat="42.52039" lon="2.03173">
        <ele>1951.8</ele>
        <time>2019-08-01T13:18:27Z</time>
      </trkpt>
      <trkpt lat="42.52043" lon="2.03176">
        <ele>1951</ele>
        <time>2019-08-01T13:18:32Z</time>
      </trkpt>
      <trkpt lat="42.52046" lon="2.03179">
        <ele>1952.2</ele>
        <time>2019-08-01T13:18:37Z</time>
      </trkpt>
      <trkpt lat="42.5205" lon="2.03183">
        <ele>1952.2</ele>
        <time>2019-08-01T13:18:42Z</time>
      </trkpt>
      <trkpt lat="42.52055" lon="2.03185">
        <ele>1952.2</ele>
        <time>2019-08-01T13:18:47Z</time>
      </trkpt>
      <trkpt lat="42.52057" lon="2.03186">
        <ele>1953</ele>
        <time>2019-08-01T13:18:52Z</time>
      </trkpt>
      <trkpt lat="42.52059" lon="2.03187">
        <ele>1955.4</ele>
        <time>2019-08-01T13:18:57Z</time>
      </trkpt>
      <trkpt lat="42.52062" lon="2.03189">
        <ele>1955</ele>
        <time>2019-08-01T13:19:02Z</time>
      </trkpt>
      <trkpt lat="42.52066" lon="2.03192">
        <ele>1955.8</ele>
        <time>2019-08-01T13:19:07Z</time>
      </trkpt>
      <trkpt lat="42.5207" lon="2.03194">
        <ele>1954.2</ele>
        <time>2019-08-01T13:19:12Z</time>
      </trkpt>
      <trkpt lat="42.52073" lon="2.03196">
        <ele>1957.4</ele>
        <time>2019-08-01T13:19:17Z</time>
      </trkpt>
      <trkpt lat="42.52077" lon="2.03196">
        <ele>1956</ele>
        <time>2019-08-01T13:19:22Z</time>
      </trkpt>
      <trkpt lat="42.52082" lon="2.03194">
        <ele>1959.6</ele>
        <time>2019-08-01T13:19:27Z</time>
      </trkpt>
      <trkpt lat="42.52085" lon="2.03193">
        <ele>1960.4</ele>
        <time>2019-08-01T13:19:32Z</time>
      </trkpt>
      <trkpt lat="42.52089" lon="2.0319">
        <ele>1958.6</ele>
        <time>2019-08-01T13:19:37Z</time>
      </trkpt>
      <trkpt lat="42.52092" lon="2.03185">
        <ele>1963.8</ele>
        <time>2019-08-01T13:19:42Z</time>
      </trkpt>
      <trkpt lat="42.52094" lon="2.0318">
        <ele>1961.4</ele>
        <time>2019-08-01T13:19:47Z</time>
      </trkpt>
      <trkpt lat="42.52095" lon="2.03175">
        <ele>1962.8</ele>
        <time>2019-08-01T13:19:52Z</time>
      </trkpt>
      <trkpt lat="42.52096" lon="2.0317">
        <ele>1965.4</ele>
        <time>2019-08-01T13:19:57Z</time>
      </trkpt>
      <trkpt lat="42.52098" lon="2.03166">
        <ele>1964.4</ele>
        <time>2019-08-01T13:20:02Z</time>
      </trkpt>
      <trkpt lat="42.521" lon="2.03162">
        <ele>1965</ele>
        <time>2019-08-01T13:20:07Z</time>
      </trkpt>
      <trkpt lat="42.52103" lon="2.03158">
        <ele>1963.8</ele>
        <time>2019-08-01T13:20:12Z</time>
      </trkpt>
      <trkpt lat="42.52105" lon="2.03155">
        <ele>1962.6</ele>
        <time>2019-08-01T13:20:17Z</time>
      </trkpt>
      <trkpt lat="42.52108" lon="2.03152">
        <ele>1962.8</ele>
        <time>2019-08-01T13:20:22Z</time>
      </trkpt>
      <trkpt lat="42.52112" lon="2.03149">
        <ele>1962.2</ele>
        <time>2019-08-01T13:20:27Z</time>
      </trkpt>
      <trkpt lat="42.52114" lon="2.03146">
        <ele>1963.8</ele>
        <time>2019-08-01T13:20:32Z</time>
      </trkpt>
      <trkpt lat="42.52117" lon="2.03143">
        <ele>1965.8</ele>
        <time>2019-08-01T13:20:37Z</time>
      </trkpt>
      <trkpt lat="42.52121" lon="2.0314">
        <ele>1966</ele>
        <time>2019-08-01T13:20:42Z</time>
      </trkpt>
      <trkpt lat="42.52124" lon="2.03138">
        <ele>1966.4</ele>
        <time>2019-08-01T13:20:47Z</time>
      </trkpt>
      <trkpt lat="42.52127" lon="2.03134">
        <ele>1964.6</ele>
        <time>2019-08-01T13:20:52Z</time>
      </trkpt>
      <trkpt lat="42.5213" lon="2.03132">
        <ele>1964</ele>
        <time>2019-08-01T13:20:57Z</time>
      </trkpt>
      <trkpt lat="42.52132" lon="2.03129">
        <ele>1964.6</ele>
        <time>2019-08-01T13:21:02Z</time>
      </trkpt>
      <trkpt lat="42.52135" lon="2.03126">
        <ele>1967.4</ele>
        <time>2019-08-01T13:21:07Z</time>
      </trkpt>
      <trkpt lat="42.52138" lon="2.03123">
        <ele>1968</ele>
        <time>2019-08-01T13:21:12Z</time>
      </trkpt>
      <trkpt lat="42.5214" lon="2.0312">
        <ele>1965.6</ele>
        <time>2019-08-01T13:21:17Z</time>
      </trkpt>
      <trkpt lat="42.52142" lon="2.03117">
        <ele>1967.6</ele>
        <time>2019-08-01T13:21:22Z</time>
      </trkpt>
      <trkpt lat="42.52145" lon="2.03113">
        <ele>1964.4</ele>
        <time>2019-08-01T13:21:27Z</time>
      </trkpt>
      <trkpt lat="42.52147" lon="2.03109">
        <ele>1967.6</ele>
        <time>2019-08-01T13:21:32Z</time>
      </trkpt>
      <trkpt lat="42.52148" lon="2.03104">
        <ele>1968.2</ele>
        <time>2019-08-01T13:21:37Z</time>
      </trkpt>
      <trkpt lat="42.52148" lon="2.03099">
        <ele>1971</ele>
        <time>2019-08-01T13:21:42Z</time>
      </trkpt>
      <trkpt lat="42.52149" lon="2.03093">
        <ele>1969.8</ele>
        <time>2019-08-01T13:21:47Z</time>
      </trkpt>
      <trkpt lat="42.52149" lon="2.03088">
        <ele>1969.6</ele>
        <time>2019-08-01T13:21:52Z</time>
      </trkpt>
      <trkpt lat="42.52149" lon="2.03083">
        <ele>1971</ele>
        <time>2019-08-01T13:21:57Z</time>
      </trkpt>
      <trkpt lat="42.52149" lon="2.03078">
        <ele>1973.4</ele>
        <time>2019-08-01T13:22:02Z</time>
      </trkpt>
      <trkpt lat="42.52149" lon="2.03074">
        <ele>1972.8</ele>
        <time>2019-08-01T13:22:07Z</time>
      </trkpt>
      <trkpt lat="42.52147" lon="2.0307">
        <ele>1970.4</ele>
        <time>2019-08-01T13:22:12Z</time>
      </trkpt>
      <trkpt lat="42.52145" lon="2.03065">
        <ele>1970.6</ele>
        <time>2019-08-01T13:22:17Z</time>
      </trkpt>
      <trkpt lat="42.52144" lon="2.0306">
        <ele>1972.2</ele>
        <time>2019-08-01T13:22:22Z</time>
      </trkpt>
      <trkpt lat="42.52143" lon="2.03055">
        <ele>1972.6</ele>
        <time>2019-08-01T13:22:27Z</time>
      </trkpt>
      <trkpt lat="42.52143" lon="2.03049">
        <ele>1972.6</ele>
        <time>2019-08-01T13:22:32Z</time>
      </trkpt>
      <trkpt lat="42.52142" lon="2.03043">
        <ele>1975.4</ele>
        <time>2019-08-01T13:22:37Z</time>
      </trkpt>
      <trkpt lat="42.52141" lon="2.03037">
        <ele>1975.4</ele>
        <time>2019-08-01T13:22:42Z</time>
      </trkpt>
      <trkpt lat="42.5214" lon="2.0303">
        <ele>1974.2</ele>
        <time>2019-08-01T13:22:48Z</time>
      </trkpt>
      <trkpt lat="42.5214" lon="2.03024">
        <ele>1973.6</ele>
        <time>2019-08-01T13:22:53Z</time>
      </trkpt>
      <trkpt lat="42.52139" lon="2.03017">
        <ele>1973</ele>
        <time>2019-08-01T13:22:58Z</time>
      </trkpt>
      <trkpt lat="42.52138" lon="2.03011">
        <ele>1974.6</ele>
        <time>2019-08-01T13:23:03Z</time>
      </trkpt>
      <trkpt lat="42.52137" lon="2.03005">
        <ele>1973.4</ele>
        <time>2019-08-01T13:23:08Z</time>
      </trkpt>
      <trkpt lat="42.52136" lon="2.02999">
        <ele>1972.6</ele>
        <time>2019-08-01T13:23:13Z</time>
      </trkpt>
      <trkpt lat="42.52134" lon="2.02993">
        <ele>1975.4</ele>
        <time>2019-08-01T13:23:18Z</time>
      </trkpt>
      <trkpt lat="42.52132" lon="2.02988">
        <ele>1975</ele>
        <time>2019-08-01T13:23:23Z</time>
      </trkpt>
      <trkpt lat="42.5213" lon="2.02983">
        <ele>1974.2</ele>
        <time>2019-08-01T13:23:28Z</time>
      </trkpt>
      <trkpt lat="42.52128" lon="2.02978">
        <ele>1974.8</ele>
        <time>2019-08-01T13:23:33Z</time>
      </trkpt>
      <trkpt lat="42.52126" lon="2.02972">
        <ele>1976.6</ele>
        <time>2019-08-01T13:23:38Z</time>
      </trkpt>
      <trkpt lat="42.52124" lon="2.02965">
        <ele>1973.8</ele>
        <time>2019-08-01T13:23:43Z</time>
      </trkpt>
      <trkpt lat="42.52123" lon="2.02958">
        <ele>1972.2</ele>
        <time>2019-08-01T13:23:48Z</time>
      </trkpt>
      <trkpt lat="42.52121" lon="2.02952">
        <ele>1976.4</ele>
        <time>2019-08-01T13:23:53Z</time>
      </trkpt>
      <trkpt lat="42.52119" lon="2.02945">
        <ele>1975</ele>
        <time>2019-08-01T13:23:58Z</time>
      </trkpt>
      <trkpt lat="42.52118" lon="2.02939">
        <ele>1975.6</ele>
        <time>2019-08-01T13:24:03Z</time>
      </trkpt>
      <trkpt lat="42.52117" lon="2.02932">
        <ele>1976.4</ele>
        <time>2019-08-01T13:24:08Z</time>
      </trkpt>
      <trkpt lat="42.52116" lon="2.02926">
        <ele>1977.8</ele>
        <time>2019-08-01T13:24:13Z</time>
      </trkpt>
      <trkpt lat="42.52113" lon="2.02921">
        <ele>1975.6</ele>
        <time>2019-08-01T13:24:18Z</time>
      </trkpt>
      <trkpt lat="42.52111" lon="2.02916">
        <ele>1976.6</ele>
        <time>2019-08-01T13:24:23Z</time>
      </trkpt>
      <trkpt lat="42.52109" lon="2.0291">
        <ele>1976.4</ele>
        <time>2019-08-01T13:24:28Z</time>
      </trkpt>
      <trkpt lat="42.52108" lon="2.02905">
        <ele>1976.6</ele>
        <time>2019-08-01T13:24:33Z</time>
      </trkpt>
      <trkpt lat="42.52107" lon="2.02901">
        <ele>1974.8</ele>
        <time>2019-08-01T13:24:38Z</time>
      </trkpt>
      <trkpt lat="42.52107" lon="2.02895">
        <ele>1977.4</ele>
        <time>2019-08-01T13:24:43Z</time>
      </trkpt>
      <trkpt lat="42.52106" lon="2.02889">
        <ele>1978.6</ele>
        <time>2019-08-01T13:24:48Z</time>
      </trkpt>
      <trkpt lat="42.52106" lon="2.02883">
        <ele>1976.8</ele>
        <time>2019-08-01T13:24:53Z</time>
      </trkpt>
      <trkpt lat="42.52105" lon="2.02877">
        <ele>1977.4</ele>
        <time>2019-08-01T13:24:58Z</time>
      </trkpt>
      <trkpt lat="42.52105" lon="2.0287">
        <ele>1979.6</ele>
        <time>2019-08-01T13:25:03Z</time>
      </trkpt>
      <trkpt lat="42.52104" lon="2.02864">
        <ele>1977.2</ele>
        <time>2019-08-01T13:25:08Z</time>
      </trkpt>
      <trkpt lat="42.52104" lon="2.02857">
        <ele>1982.2</ele>
        <time>2019-08-01T13:25:13Z</time>
      </trkpt>
      <trkpt lat="42.52104" lon="2.02851">
        <ele>1980.4</ele>
        <time>2019-08-01T13:25:18Z</time>
      </trkpt>
      <trkpt lat="42.52103" lon="2.02844">
        <ele>1979.6</ele>
        <time>2019-08-01T13:25:23Z</time>
      </trkpt>
      <trkpt lat="42.52102" lon="2.02838">
        <ele>1980.2</ele>
        <time>2019-08-01T13:25:28Z</time>
      </trkpt>
      <trkpt lat="42.52101" lon="2.02833">
        <ele>1982.2</ele>
        <time>2019-08-01T13:25:33Z</time>
      </trkpt>
      <trkpt lat="42.52099" lon="2.02828">
        <ele>1981.4</ele>
        <time>2019-08-01T13:25:38Z</time>
      </trkpt>
      <trkpt lat="42.52098" lon="2.02822">
        <ele>1979.8</ele>
        <time>2019-08-01T13:25:43Z</time>
      </trkpt>
      <trkpt lat="42.52099" lon="2.02815">
        <ele>1980</ele>
        <time>2019-08-01T13:25:48Z</time>
      </trkpt>
      <trkpt lat="42.52099" lon="2.02809">
        <ele>1977.4</ele>
        <time>2019-08-01T13:25:53Z</time>
      </trkpt>
      <trkpt lat="42.52099" lon="2.02806">
        <ele>1981.8</ele>
        <time>2019-08-01T13:25:58Z</time>
      </trkpt>
      <trkpt lat="42.521" lon="2.028">
        <ele>1980.2</ele>
        <time>2019-08-01T13:26:03Z</time>
      </trkpt>
      <trkpt lat="42.521" lon="2.02794">
        <ele>1984</ele>
        <time>2019-08-01T13:26:08Z</time>
      </trkpt>
      <trkpt lat="42.521" lon="2.02789">
        <ele>1982.8</ele>
        <time>2019-08-01T13:26:13Z</time>
      </trkpt>
      <trkpt lat="42.52101" lon="2.02785">
        <ele>1983.4</ele>
        <time>2019-08-01T13:26:18Z</time>
      </trkpt>
      <trkpt lat="42.52102" lon="2.0278">
        <ele>1984.2</ele>
        <time>2019-08-01T13:26:23Z</time>
      </trkpt>
      <trkpt lat="42.52103" lon="2.02775">
        <ele>1983.8</ele>
        <time>2019-08-01T13:26:28Z</time>
      </trkpt>
      <trkpt lat="42.52104" lon="2.0277">
        <ele>1982.6</ele>
        <time>2019-08-01T13:26:33Z</time>
      </trkpt>
      <trkpt lat="42.52105" lon="2.02765">
        <ele>1987.6</ele>
        <time>2019-08-01T13:26:38Z</time>
      </trkpt>
      <trkpt lat="42.52107" lon="2.02761">
        <ele>1986</ele>
        <time>2019-08-01T13:26:43Z</time>
      </trkpt>
      <trkpt lat="42.52109" lon="2.02757">
        <ele>1986.6</ele>
        <time>2019-08-01T13:26:48Z</time>
      </trkpt>
      <trkpt lat="42.5211" lon="2.02752">
        <ele>1987.2</ele>
        <time>2019-08-01T13:26:53Z</time>
      </trkpt>
      <trkpt lat="42.52112" lon="2.02748">
        <ele>1987.8</ele>
        <time>2019-08-01T13:26:58Z</time>
      </trkpt>
      <trkpt lat="42.52114" lon="2.02744">
        <ele>1987.8</ele>
        <time>2019-08-01T13:27:03Z</time>
      </trkpt>
      <trkpt lat="42.52116" lon="2.0274">
        <ele>1991</ele>
        <time>2019-08-01T13:27:08Z</time>
      </trkpt>
      <trkpt lat="42.52118" lon="2.02736">
        <ele>1989.8</ele>
        <time>2019-08-01T13:27:13Z</time>
      </trkpt>
      <trkpt lat="42.5212" lon="2.02733">
        <ele>1989.6</ele>
        <time>2019-08-01T13:27:18Z</time>
      </trkpt>
      <trkpt lat="42.52122" lon="2.02729">
        <ele>1992.2</ele>
        <time>2019-08-01T13:27:23Z</time>
      </trkpt>
      <trkpt lat="42.52123" lon="2.02724">
        <ele>1991.4</ele>
        <time>2019-08-01T13:27:28Z</time>
      </trkpt>
      <trkpt lat="42.52125" lon="2.02722">
        <ele>1991.4</ele>
        <time>2019-08-01T13:27:33Z</time>
      </trkpt>
      <trkpt lat="42.52126" lon="2.02718">
        <ele>1993.4</ele>
        <time>2019-08-01T13:27:38Z</time>
      </trkpt>
      <trkpt lat="42.52128" lon="2.02715">
        <ele>1992.6</ele>
        <time>2019-08-01T13:27:43Z</time>
      </trkpt>
      <trkpt lat="42.52128" lon="2.02714">
        <ele>1991.8</ele>
        <time>2019-08-01T13:27:58Z</time>
      </trkpt>
      <trkpt lat="42.5213" lon="2.02711">
        <ele>1994.6</ele>
        <time>2019-08-01T13:28:03Z</time>
      </trkpt>
      <trkpt lat="42.52132" lon="2.02708">
        <ele>1995.6</ele>
        <time>2019-08-01T13:28:08Z</time>
      </trkpt>
      <trkpt lat="42.52134" lon="2.02705">
        <ele>1994.8</ele>
        <time>2019-08-01T13:28:13Z</time>
      </trkpt>
      <trkpt lat="42.52136" lon="2.02702">
        <ele>1994.2</ele>
        <time>2019-08-01T13:28:18Z</time>
      </trkpt>
      <trkpt lat="42.52137" lon="2.02699">
        <ele>1995.8</ele>
        <time>2019-08-01T13:28:23Z</time>
      </trkpt>
      <trkpt lat="42.5214" lon="2.02697">
        <ele>1994.2</ele>
        <time>2019-08-01T13:28:28Z</time>
      </trkpt>
      <trkpt lat="42.52141" lon="2.02694">
        <ele>1996</ele>
        <time>2019-08-01T13:28:33Z</time>
      </trkpt>
      <trkpt lat="42.52143" lon="2.02691">
        <ele>1997.6</ele>
        <time>2019-08-01T13:28:38Z</time>
      </trkpt>
      <trkpt lat="42.52145" lon="2.02688">
        <ele>1995</ele>
        <time>2019-08-01T13:28:43Z</time>
      </trkpt>
      <trkpt lat="42.52147" lon="2.02685">
        <ele>1999</ele>
        <time>2019-08-01T13:28:48Z</time>
      </trkpt>
      <trkpt lat="42.52148" lon="2.02682">
        <ele>1997</ele>
        <time>2019-08-01T13:28:53Z</time>
      </trkpt>
      <trkpt lat="42.5215" lon="2.0268">
        <ele>1995.2</ele>
        <time>2019-08-01T13:28:58Z</time>
      </trkpt>
      <trkpt lat="42.52153" lon="2.02677">
        <ele>1997.4</ele>
        <time>2019-08-01T13:29:03Z</time>
      </trkpt>
      <trkpt lat="42.52155" lon="2.02674">
        <ele>1998.2</ele>
        <time>2019-08-01T13:29:08Z</time>
      </trkpt>
      <trkpt lat="42.52158" lon="2.0267">
        <ele>1999</ele>
        <time>2019-08-01T13:29:13Z</time>
      </trkpt>
      <trkpt lat="42.5216" lon="2.02667">
        <ele>1999</ele>
        <time>2019-08-01T13:29:18Z</time>
      </trkpt>
      <trkpt lat="42.52163" lon="2.02664">
        <ele>2002</ele>
        <time>2019-08-01T13:29:23Z</time>
      </trkpt>
      <trkpt lat="42.52166" lon="2.02662">
        <ele>2001.8</ele>
        <time>2019-08-01T13:29:28Z</time>
      </trkpt>
      <trkpt lat="42.52169" lon="2.02659">
        <ele>2000.4</ele>
        <time>2019-08-01T13:29:33Z</time>
      </trkpt>
      <trkpt lat="42.52171" lon="2.02655">
        <ele>2002.6</ele>
        <time>2019-08-01T13:29:38Z</time>
      </trkpt>
      <trkpt lat="42.52174" lon="2.02651">
        <ele>2002.4</ele>
        <time>2019-08-01T13:29:43Z</time>
      </trkpt>
      <trkpt lat="42.52176" lon="2.02647">
        <ele>2003.4</ele>
        <time>2019-08-01T13:29:48Z</time>
      </trkpt>
      <trkpt lat="42.52177" lon="2.02643">
        <ele>2004.2</ele>
        <time>2019-08-01T13:29:53Z</time>
      </trkpt>
      <trkpt lat="42.52179" lon="2.02638">
        <ele>2005.6</ele>
        <time>2019-08-01T13:29:58Z</time>
      </trkpt>
      <trkpt lat="42.52181" lon="2.02634">
        <ele>2005.8</ele>
        <time>2019-08-01T13:30:03Z</time>
      </trkpt>
      <trkpt lat="42.52182" lon="2.02629">
        <ele>2006.6</ele>
        <time>2019-08-01T13:30:08Z</time>
      </trkpt>
      <trkpt lat="42.52182" lon="2.02624">
        <ele>2005.8</ele>
        <time>2019-08-01T13:30:13Z</time>
      </trkpt>
      <trkpt lat="42.52183" lon="2.02619">
        <ele>2006.2</ele>
        <time>2019-08-01T13:30:18Z</time>
      </trkpt>
      <trkpt lat="42.52185" lon="2.02614">
        <ele>2007.4</ele>
        <time>2019-08-01T13:30:23Z</time>
      </trkpt>
      <trkpt lat="42.52186" lon="2.02609">
        <ele>2008</ele>
        <time>2019-08-01T13:30:28Z</time>
      </trkpt>
      <trkpt lat="42.52187" lon="2.02604">
        <ele>2007.8</ele>
        <time>2019-08-01T13:30:33Z</time>
      </trkpt>
      <trkpt lat="42.52188" lon="2.026">
        <ele>2007.6</ele>
        <time>2019-08-01T13:30:38Z</time>
      </trkpt>
      <trkpt lat="42.5219" lon="2.02598">
        <ele>2008.4</ele>
        <time>2019-08-01T13:30:43Z</time>
      </trkpt>
      <trkpt lat="42.5219" lon="2.02594">
        <ele>2010</ele>
        <time>2019-08-01T13:30:48Z</time>
      </trkpt>
      <trkpt lat="42.52191" lon="2.02589">
        <ele>2009.8</ele>
        <time>2019-08-01T13:30:53Z</time>
      </trkpt>
      <trkpt lat="42.52193" lon="2.02584">
        <ele>2010</ele>
        <time>2019-08-01T13:30:58Z</time>
      </trkpt>
      <trkpt lat="42.52194" lon="2.02579">
        <ele>2008.2</ele>
        <time>2019-08-01T13:31:03Z</time>
      </trkpt>
      <trkpt lat="42.52195" lon="2.02574">
        <ele>2009.4</ele>
        <time>2019-08-01T13:31:08Z</time>
      </trkpt>
      <trkpt lat="42.52196" lon="2.0257">
        <ele>2011.2</ele>
        <time>2019-08-01T13:31:13Z</time>
      </trkpt>
      <trkpt lat="42.52198" lon="2.02564">
        <ele>2014.8</ele>
        <time>2019-08-01T13:31:18Z</time>
      </trkpt>
      <trkpt lat="42.522" lon="2.0256">
        <ele>2015.6</ele>
        <time>2019-08-01T13:31:23Z</time>
      </trkpt>
      <trkpt lat="42.52203" lon="2.02556">
        <ele>2016</ele>
        <time>2019-08-01T13:31:28Z</time>
      </trkpt>
      <trkpt lat="42.52205" lon="2.02552">
        <ele>2014</ele>
        <time>2019-08-01T13:31:33Z</time>
      </trkpt>
      <trkpt lat="42.52208" lon="2.02549">
        <ele>2015</ele>
        <time>2019-08-01T13:31:38Z</time>
      </trkpt>
      <trkpt lat="42.52211" lon="2.02546">
        <ele>2015.2</ele>
        <time>2019-08-01T13:31:43Z</time>
      </trkpt>
      <trkpt lat="42.52214" lon="2.02544">
        <ele>2015</ele>
        <time>2019-08-01T13:31:48Z</time>
      </trkpt>
      <trkpt lat="42.52217" lon="2.02541">
        <ele>2015</ele>
        <time>2019-08-01T13:31:53Z</time>
      </trkpt>
      <trkpt lat="42.5222" lon="2.02538">
        <ele>2014.8</ele>
        <time>2019-08-01T13:31:58Z</time>
      </trkpt>
      <trkpt lat="42.52223" lon="2.02535">
        <ele>2016</ele>
        <time>2019-08-01T13:32:03Z</time>
      </trkpt>
      <trkpt lat="42.52227" lon="2.02534">
        <ele>2019</ele>
        <time>2019-08-01T13:32:08Z</time>
      </trkpt>
      <trkpt lat="42.52231" lon="2.02536">
        <ele>2016.2</ele>
        <time>2019-08-01T13:32:13Z</time>
      </trkpt>
      <trkpt lat="42.52235" lon="2.02538">
        <ele>2016.6</ele>
        <time>2019-08-01T13:32:18Z</time>
      </trkpt>
      <trkpt lat="42.52238" lon="2.02539">
        <ele>2016.2</ele>
        <time>2019-08-01T13:32:23Z</time>
      </trkpt>
      <trkpt lat="42.52242" lon="2.0254">
        <ele>2014.8</ele>
        <time>2019-08-01T13:32:28Z</time>
      </trkpt>
      <trkpt lat="42.52245" lon="2.02538">
        <ele>2017.8</ele>
        <time>2019-08-01T13:32:33Z</time>
      </trkpt>
      <trkpt lat="42.5225" lon="2.02536">
        <ele>2018.6</ele>
        <time>2019-08-01T13:32:38Z</time>
      </trkpt>
      <trkpt lat="42.52254" lon="2.02534">
        <ele>2018.6</ele>
        <time>2019-08-01T13:32:43Z</time>
      </trkpt>
      <trkpt lat="42.52258" lon="2.02533">
        <ele>2018</ele>
        <time>2019-08-01T13:32:48Z</time>
      </trkpt>
      <trkpt lat="42.52262" lon="2.02531">
        <ele>2020.8</ele>
        <time>2019-08-01T13:32:53Z</time>
      </trkpt>
      <trkpt lat="42.52266" lon="2.0253">
        <ele>2020.4</ele>
        <time>2019-08-01T13:32:58Z</time>
      </trkpt>
      <trkpt lat="42.52271" lon="2.02529">
        <ele>2019.2</ele>
        <time>2019-08-01T13:33:03Z</time>
      </trkpt>
      <trkpt lat="42.52275" lon="2.02528">
        <ele>2021.4</ele>
        <time>2019-08-01T13:33:08Z</time>
      </trkpt>
      <trkpt lat="42.52279" lon="2.02528">
        <ele>2019.8</ele>
        <time>2019-08-01T13:33:13Z</time>
      </trkpt>
      <trkpt lat="42.52283" lon="2.02527">
        <ele>2018.6</ele>
        <time>2019-08-01T13:33:18Z</time>
      </trkpt>
      <trkpt lat="42.52287" lon="2.02529">
        <ele>2021.6</ele>
        <time>2019-08-01T13:33:23Z</time>
      </trkpt>
      <trkpt lat="42.52291" lon="2.02531">
        <ele>2020.2</ele>
        <time>2019-08-01T13:33:28Z</time>
      </trkpt>
      <trkpt lat="42.52295" lon="2.02534">
        <ele>2020.4</ele>
        <time>2019-08-01T13:33:33Z</time>
      </trkpt>
      <trkpt lat="42.52299" lon="2.02535">
        <ele>2020.6</ele>
        <time>2019-08-01T13:33:38Z</time>
      </trkpt>
      <trkpt lat="42.52303" lon="2.02536">
        <ele>2020.4</ele>
        <time>2019-08-01T13:33:43Z</time>
      </trkpt>
      <trkpt lat="42.52308" lon="2.02538">
        <ele>2020.8</ele>
        <time>2019-08-01T13:33:48Z</time>
      </trkpt>
      <trkpt lat="42.52311" lon="2.02539">
        <ele>2021.4</ele>
        <time>2019-08-01T13:33:53Z</time>
      </trkpt>
      <trkpt lat="42.52315" lon="2.02542">
        <ele>2021</ele>
        <time>2019-08-01T13:33:58Z</time>
      </trkpt>
      <trkpt lat="42.52318" lon="2.02544">
        <ele>2024.6</ele>
        <time>2019-08-01T13:34:03Z</time>
      </trkpt>
      <trkpt lat="42.52322" lon="2.02545">
        <ele>2023.6</ele>
        <time>2019-08-01T13:34:08Z</time>
      </trkpt>
      <trkpt lat="42.52326" lon="2.02547">
        <ele>2024.2</ele>
        <time>2019-08-01T13:34:13Z</time>
      </trkpt>
      <trkpt lat="42.5233" lon="2.02549">
        <ele>2021.8</ele>
        <time>2019-08-01T13:34:18Z</time>
      </trkpt>
      <trkpt lat="42.52334" lon="2.0255">
        <ele>2025.4</ele>
        <time>2019-08-01T13:34:23Z</time>
      </trkpt>
      <trkpt lat="42.52339" lon="2.02549">
        <ele>2022.6</ele>
        <time>2019-08-01T13:34:28Z</time>
      </trkpt>
      <trkpt lat="42.52343" lon="2.02547">
        <ele>2025.6</ele>
        <time>2019-08-01T13:34:33Z</time>
      </trkpt>
      <trkpt lat="42.52348" lon="2.02543">
        <ele>2024</ele>
        <time>2019-08-01T13:34:38Z</time>
      </trkpt>
      <trkpt lat="42.52352" lon="2.02539">
        <ele>2024.2</ele>
        <time>2019-08-01T13:34:43Z</time>
      </trkpt>
      <trkpt lat="42.52355" lon="2.02536">
        <ele>2024</ele>
        <time>2019-08-01T13:34:48Z</time>
      </trkpt>
      <trkpt lat="42.52359" lon="2.02533">
        <ele>2024.4</ele>
        <time>2019-08-01T13:34:53Z</time>
      </trkpt>
      <trkpt lat="42.52363" lon="2.0253">
        <ele>2026.8</ele>
        <time>2019-08-01T13:34:58Z</time>
      </trkpt>
      <trkpt lat="42.52367" lon="2.02527">
        <ele>2028.8</ele>
        <time>2019-08-01T13:35:03Z</time>
      </trkpt>
      <trkpt lat="42.52371" lon="2.02524">
        <ele>2030</ele>
        <time>2019-08-01T13:35:08Z</time>
      </trkpt>
      <trkpt lat="42.52375" lon="2.02521">
        <ele>2029.2</ele>
        <time>2019-08-01T13:35:13Z</time>
      </trkpt>
      <trkpt lat="42.52379" lon="2.02519">
        <ele>2028.6</ele>
        <time>2019-08-01T13:35:18Z</time>
      </trkpt>
      <trkpt lat="42.52384" lon="2.02517">
        <ele>2028.6</ele>
        <time>2019-08-01T13:35:23Z</time>
      </trkpt>
      <trkpt lat="42.52385" lon="2.02512">
        <ele>2026.4</ele>
        <time>2019-08-01T13:35:28Z</time>
      </trkpt>
      <trkpt lat="42.52387" lon="2.02506">
        <ele>2030.4</ele>
        <time>2019-08-01T13:35:33Z</time>
      </trkpt>
      <trkpt lat="42.52389" lon="2.02501">
        <ele>2030.6</ele>
        <time>2019-08-01T13:35:38Z</time>
      </trkpt>
      <trkpt lat="42.52391" lon="2.02496">
        <ele>2027.6</ele>
        <time>2019-08-01T13:35:43Z</time>
      </trkpt>
      <trkpt lat="42.52395" lon="2.02492">
        <ele>2028</ele>
        <time>2019-08-01T13:35:48Z</time>
      </trkpt>
      <trkpt lat="42.52398" lon="2.02487">
        <ele>2028.2</ele>
        <time>2019-08-01T13:35:53Z</time>
      </trkpt>
      <trkpt lat="42.52401" lon="2.02482">
        <ele>2030.6</ele>
        <time>2019-08-01T13:35:58Z</time>
      </trkpt>
      <trkpt lat="42.52404" lon="2.02477">
        <ele>2029.8</ele>
        <time>2019-08-01T13:36:03Z</time>
      </trkpt>
      <trkpt lat="42.52407" lon="2.02471">
        <ele>2032.8</ele>
        <time>2019-08-01T13:36:08Z</time>
      </trkpt>
      <trkpt lat="42.5241" lon="2.02467">
        <ele>2030.8</ele>
        <time>2019-08-01T13:36:13Z</time>
      </trkpt>
      <trkpt lat="42.52413" lon="2.02462">
        <ele>2031.8</ele>
        <time>2019-08-01T13:36:18Z</time>
      </trkpt>
      <trkpt lat="42.52416" lon="2.02457">
        <ele>2032</ele>
        <time>2019-08-01T13:36:23Z</time>
      </trkpt>
      <trkpt lat="42.52418" lon="2.02453">
        <ele>2032.4</ele>
        <time>2019-08-01T13:36:28Z</time>
      </trkpt>
      <trkpt lat="42.52421" lon="2.02448">
        <ele>2033</ele>
        <time>2019-08-01T13:36:33Z</time>
      </trkpt>
      <trkpt lat="42.52424" lon="2.02444">
        <ele>2033.6</ele>
        <time>2019-08-01T13:36:38Z</time>
      </trkpt>
      <trkpt lat="42.52425" lon="2.02444">
        <ele>2033.4</ele>
        <time>2019-08-01T13:36:48Z</time>
      </trkpt>
      <trkpt lat="42.52427" lon="2.0244">
        <ele>2031.8</ele>
        <time>2019-08-01T13:36:53Z</time>
      </trkpt>
      <trkpt lat="42.5243" lon="2.02435">
        <ele>2031</ele>
        <time>2019-08-01T13:36:58Z</time>
      </trkpt>
      <trkpt lat="42.52433" lon="2.0243">
        <ele>2035</ele>
        <time>2019-08-01T13:37:03Z</time>
      </trkpt>
      <trkpt lat="42.52437" lon="2.02425">
        <ele>2033</ele>
        <time>2019-08-01T13:37:08Z</time>
      </trkpt>
      <trkpt lat="42.52441" lon="2.02418">
        <ele>2032.4</ele>
        <time>2019-08-01T13:37:13Z</time>
      </trkpt>
      <trkpt lat="42.52443" lon="2.02414">
        <ele>2033.2</ele>
        <time>2019-08-01T13:37:18Z</time>
      </trkpt>
      <trkpt lat="42.52446" lon="2.02409">
        <ele>2033.6</ele>
        <time>2019-08-01T13:37:23Z</time>
      </trkpt>
      <trkpt lat="42.52451" lon="2.02404">
        <ele>2031.2</ele>
        <time>2019-08-01T13:37:28Z</time>
      </trkpt>
      <trkpt lat="42.52455" lon="2.024">
        <ele>2033.4</ele>
        <time>2019-08-01T13:37:33Z</time>
      </trkpt>
      <trkpt lat="42.5246" lon="2.02397">
        <ele>2035.6</ele>
        <time>2019-08-01T13:37:38Z</time>
      </trkpt>
      <trkpt lat="42.52464" lon="2.02393">
        <ele>2036</ele>
        <time>2019-08-01T13:37:43Z</time>
      </trkpt>
      <trkpt lat="42.52469" lon="2.0239">
        <ele>2035.4</ele>
        <time>2019-08-01T13:37:48Z</time>
      </trkpt>
      <trkpt lat="42.52474" lon="2.02388">
        <ele>2035.8</ele>
        <time>2019-08-01T13:37:53Z</time>
      </trkpt>
      <trkpt lat="42.52479" lon="2.02386">
        <ele>2038.2</ele>
        <time>2019-08-01T13:37:58Z</time>
      </trkpt>
      <trkpt lat="42.52484" lon="2.02384">
        <ele>2036.8</ele>
        <time>2019-08-01T13:38:03Z</time>
      </trkpt>
      <trkpt lat="42.52489" lon="2.02383">
        <ele>2038.6</ele>
        <time>2019-08-01T13:38:08Z</time>
      </trkpt>
      <trkpt lat="42.52494" lon="2.02382">
        <ele>2035.4</ele>
        <time>2019-08-01T13:38:13Z</time>
      </trkpt>
      <trkpt lat="42.52499" lon="2.02381">
        <ele>2037.6</ele>
        <time>2019-08-01T13:38:18Z</time>
      </trkpt>
      <trkpt lat="42.52504" lon="2.02379">
        <ele>2037.6</ele>
        <time>2019-08-01T13:38:23Z</time>
      </trkpt>
      <trkpt lat="42.52509" lon="2.02378">
        <ele>2036.8</ele>
        <time>2019-08-01T13:38:28Z</time>
      </trkpt>
      <trkpt lat="42.52514" lon="2.02376">
        <ele>2037.8</ele>
        <time>2019-08-01T13:38:33Z</time>
      </trkpt>
      <trkpt lat="42.52518" lon="2.02371">
        <ele>2035.2</ele>
        <time>2019-08-01T13:38:38Z</time>
      </trkpt>
      <trkpt lat="42.52522" lon="2.02366">
        <ele>2038.4</ele>
        <time>2019-08-01T13:38:43Z</time>
      </trkpt>
      <trkpt lat="42.52525" lon="2.02362">
        <ele>2038</ele>
        <time>2019-08-01T13:38:48Z</time>
      </trkpt>
      <trkpt lat="42.52524" lon="2.02358">
        <ele>2037</ele>
        <time>2019-08-01T13:38:53Z</time>
      </trkpt>
      <trkpt lat="42.52524" lon="2.02352">
        <ele>2037</ele>
        <time>2019-08-01T13:38:58Z</time>
      </trkpt>
      <trkpt lat="42.52524" lon="2.02347">
        <ele>2036</ele>
        <time>2019-08-01T13:39:03Z</time>
      </trkpt>
      <trkpt lat="42.52524" lon="2.02341">
        <ele>2033</ele>
        <time>2019-08-01T13:39:08Z</time>
      </trkpt>
      <trkpt lat="42.52524" lon="2.02333">
        <ele>2037</ele>
        <time>2019-08-01T13:39:13Z</time>
      </trkpt>
      <trkpt lat="42.52523" lon="2.02326">
        <ele>2034.4</ele>
        <time>2019-08-01T13:39:18Z</time>
      </trkpt>
      <trkpt lat="42.52522" lon="2.02319">
        <ele>2033.2</ele>
        <time>2019-08-01T13:39:23Z</time>
      </trkpt>
      <trkpt lat="42.52521" lon="2.02312">
        <ele>2035</ele>
        <time>2019-08-01T13:39:28Z</time>
      </trkpt>
      <trkpt lat="42.52521" lon="2.02305">
        <ele>2037.4</ele>
        <time>2019-08-01T13:39:33Z</time>
      </trkpt>
      <trkpt lat="42.5252" lon="2.02298">
        <ele>2034.4</ele>
        <time>2019-08-01T13:39:38Z</time>
      </trkpt>
      <trkpt lat="42.52519" lon="2.0229">
        <ele>2034.2</ele>
        <time>2019-08-01T13:39:43Z</time>
      </trkpt>
      <trkpt lat="42.52518" lon="2.02284">
        <ele>2033.6</ele>
        <time>2019-08-01T13:39:48Z</time>
      </trkpt>
      <trkpt lat="42.52517" lon="2.02276">
        <ele>2034</ele>
        <time>2019-08-01T13:39:53Z</time>
      </trkpt>
      <trkpt lat="42.52516" lon="2.0227">
        <ele>2034</ele>
        <time>2019-08-01T13:39:58Z</time>
      </trkpt>
      <trkpt lat="42.52514" lon="2.02263">
        <ele>2034.4</ele>
        <time>2019-08-01T13:40:03Z</time>
      </trkpt>
      <trkpt lat="42.52513" lon="2.02256">
        <ele>2035.6</ele>
        <time>2019-08-01T13:40:08Z</time>
      </trkpt>
      <trkpt lat="42.52512" lon="2.0225">
        <ele>2034.6</ele>
        <time>2019-08-01T13:40:13Z</time>
      </trkpt>
      <trkpt lat="42.52511" lon="2.02244">
        <ele>2033.6</ele>
        <time>2019-08-01T13:40:18Z</time>
      </trkpt>
      <trkpt lat="42.5251" lon="2.02238">
        <ele>2036.2</ele>
        <time>2019-08-01T13:40:23Z</time>
      </trkpt>
      <trkpt lat="42.5251" lon="2.02231">
        <ele>2034.8</ele>
        <time>2019-08-01T13:40:28Z</time>
      </trkpt>
      <trkpt lat="42.5251" lon="2.02224">
        <ele>2035.4</ele>
        <time>2019-08-01T13:40:33Z</time>
      </trkpt>
      <trkpt lat="42.52509" lon="2.02217">
        <ele>2035.4</ele>
        <time>2019-08-01T13:40:38Z</time>
      </trkpt>
      <trkpt lat="42.52509" lon="2.02211">
        <ele>2037.6</ele>
        <time>2019-08-01T13:40:43Z</time>
      </trkpt>
      <trkpt lat="42.52509" lon="2.02204">
        <ele>2035.2</ele>
        <time>2019-08-01T13:40:48Z</time>
      </trkpt>
      <trkpt lat="42.52508" lon="2.02199">
        <ele>2037</ele>
        <time>2019-08-01T13:40:53Z</time>
      </trkpt>
      <trkpt lat="42.52507" lon="2.02194">
        <ele>2037.6</ele>
        <time>2019-08-01T13:40:58Z</time>
      </trkpt>
      <trkpt lat="42.52505" lon="2.02191">
        <ele>2036.8</ele>
        <time>2019-08-01T13:41:03Z</time>
      </trkpt>
      <trkpt lat="42.52506" lon="2.02191">
        <ele>2036.6</ele>
        <time>2019-08-01T13:41:13Z</time>
      </trkpt>
      <trkpt lat="42.52506" lon="2.02189">
        <ele>2036.4</ele>
        <time>2019-08-01T13:41:18Z</time>
      </trkpt>
      <trkpt lat="42.52504" lon="2.02188">
        <ele>2037.6</ele>
        <time>2019-08-01T13:41:23Z</time>
      </trkpt>
      <trkpt lat="42.52504" lon="2.02188">
        <ele>2036</ele>
        <time>2019-08-01T13:41:53Z</time>
      </trkpt>
      <trkpt lat="42.525" lon="2.02187">
        <ele>2037.2</ele>
        <time>2019-08-01T13:41:58Z</time>
      </trkpt>
      <trkpt lat="42.52495" lon="2.02187">
        <ele>2035.6</ele>
        <time>2019-08-01T13:42:03Z</time>
      </trkpt>
      <trkpt lat="42.5249" lon="2.02186">
        <ele>2036</ele>
        <time>2019-08-01T13:42:08Z</time>
      </trkpt>
      <trkpt lat="42.52485" lon="2.02186">
        <ele>2036.6</ele>
        <time>2019-08-01T13:42:13Z</time>
      </trkpt>
      <trkpt lat="42.5248" lon="2.02185">
        <ele>2034.8</ele>
        <time>2019-08-01T13:42:18Z</time>
      </trkpt>
      <trkpt lat="42.52474" lon="2.02184">
        <ele>2037</ele>
        <time>2019-08-01T13:42:23Z</time>
      </trkpt>
      <trkpt lat="42.52469" lon="2.02184">
        <ele>2035.8</ele>
        <time>2019-08-01T13:42:28Z</time>
      </trkpt>
      <trkpt lat="42.52463" lon="2.02182">
        <ele>2036</ele>
        <time>2019-08-01T13:42:33Z</time>
      </trkpt>
      <trkpt lat="42.52458" lon="2.02181">
        <ele>2035.4</ele>
        <time>2019-08-01T13:42:38Z</time>
      </trkpt>
      <trkpt lat="42.52452" lon="2.0218">
        <ele>2036.8</ele>
        <time>2019-08-01T13:42:43Z</time>
      </trkpt>
      <trkpt lat="42.52447" lon="2.02178">
        <ele>2037.4</ele>
        <time>2019-08-01T13:42:48Z</time>
      </trkpt>
      <trkpt lat="42.52442" lon="2.02177">
        <ele>2036</ele>
        <time>2019-08-01T13:42:53Z</time>
      </trkpt>
      <trkpt lat="42.52436" lon="2.02175">
        <ele>2037.6</ele>
        <time>2019-08-01T13:42:58Z</time>
      </trkpt>
      <trkpt lat="42.52431" lon="2.02172">
        <ele>2036.4</ele>
        <time>2019-08-01T13:43:03Z</time>
      </trkpt>
      <trkpt lat="42.52426" lon="2.02168">
        <ele>2036.2</ele>
        <time>2019-08-01T13:43:08Z</time>
      </trkpt>
      <trkpt lat="42.52422" lon="2.02163">
        <ele>2034</ele>
        <time>2019-08-01T13:43:13Z</time>
      </trkpt>
      <trkpt lat="42.52418" lon="2.0216">
        <ele>2035.8</ele>
        <time>2019-08-01T13:43:18Z</time>
      </trkpt>
      <trkpt lat="42.52414" lon="2.02154">
        <ele>2035.4</ele>
        <time>2019-08-01T13:43:23Z</time>
      </trkpt>
      <trkpt lat="42.52412" lon="2.02149">
        <ele>2035.6</ele>
        <time>2019-08-01T13:43:28Z</time>
      </trkpt>
      <trkpt lat="42.52409" lon="2.02142">
        <ele>2036.2</ele>
        <time>2019-08-01T13:43:33Z</time>
      </trkpt>
      <trkpt lat="42.52407" lon="2.02136">
        <ele>2034.8</ele>
        <time>2019-08-01T13:43:38Z</time>
      </trkpt>
      <trkpt lat="42.52404" lon="2.0213">
        <ele>2036.6</ele>
        <time>2019-08-01T13:43:43Z</time>
      </trkpt>
      <trkpt lat="42.52401" lon="2.02123">
        <ele>2034.4</ele>
        <time>2019-08-01T13:43:48Z</time>
      </trkpt>
      <trkpt lat="42.52399" lon="2.02116">
        <ele>2035.4</ele>
        <time>2019-08-01T13:43:53Z</time>
      </trkpt>
      <trkpt lat="42.52397" lon="2.0211">
        <ele>2034.6</ele>
        <time>2019-08-01T13:43:58Z</time>
      </trkpt>
      <trkpt lat="42.52395" lon="2.02103">
        <ele>2035.4</ele>
        <time>2019-08-01T13:44:03Z</time>
      </trkpt>
      <trkpt lat="42.52393" lon="2.02096">
        <ele>2035.4</ele>
        <time>2019-08-01T13:44:08Z</time>
      </trkpt>
      <trkpt lat="42.52391" lon="2.0209">
        <ele>2032.4</ele>
        <time>2019-08-01T13:44:13Z</time>
      </trkpt>
      <trkpt lat="42.5239" lon="2.02082">
        <ele>2033.8</ele>
        <time>2019-08-01T13:44:18Z</time>
      </trkpt>
      <trkpt lat="42.52388" lon="2.02075">
        <ele>2033</ele>
        <time>2019-08-01T13:44:23Z</time>
      </trkpt>
      <trkpt lat="42.52387" lon="2.02068">
        <ele>2033.8</ele>
        <time>2019-08-01T13:44:28Z</time>
      </trkpt>
      <trkpt lat="42.52385" lon="2.02061">
        <ele>2034.2</ele>
        <time>2019-08-01T13:44:33Z</time>
      </trkpt>
      <trkpt lat="42.52384" lon="2.02054">
        <ele>2032.4</ele>
        <time>2019-08-01T13:44:38Z</time>
      </trkpt>
      <trkpt lat="42.52382" lon="2.02047">
        <ele>2033.2</ele>
        <time>2019-08-01T13:44:43Z</time>
      </trkpt>
      <trkpt lat="42.52381" lon="2.0204">
        <ele>2030</ele>
        <time>2019-08-01T13:44:48Z</time>
      </trkpt>
      <trkpt lat="42.5238" lon="2.02033">
        <ele>2033.2</ele>
        <time>2019-08-01T13:44:53Z</time>
      </trkpt>
      <trkpt lat="42.52379" lon="2.02025">
        <ele>2030.6</ele>
        <time>2019-08-01T13:44:58Z</time>
      </trkpt>
      <trkpt lat="42.52378" lon="2.02017">
        <ele>2030.8</ele>
        <time>2019-08-01T13:45:03Z</time>
      </trkpt>
      <trkpt lat="42.52377" lon="2.0201">
        <ele>2029.8</ele>
        <time>2019-08-01T13:45:08Z</time>
      </trkpt>
      <trkpt lat="42.52376" lon="2.02002">
        <ele>2029.8</ele>
        <time>2019-08-01T13:45:13Z</time>
      </trkpt>
      <trkpt lat="42.52375" lon="2.01995">
        <ele>2031.2</ele>
        <time>2019-08-01T13:45:18Z</time>
      </trkpt>
      <trkpt lat="42.52373" lon="2.01988">
        <ele>2027.6</ele>
        <time>2019-08-01T13:45:23Z</time>
      </trkpt>
      <trkpt lat="42.52372" lon="2.01981">
        <ele>2028.6</ele>
        <time>2019-08-01T13:45:28Z</time>
      </trkpt>
      <trkpt lat="42.5237" lon="2.01974">
        <ele>2028</ele>
        <time>2019-08-01T13:45:33Z</time>
      </trkpt>
      <trkpt lat="42.52369" lon="2.01967">
        <ele>2027.2</ele>
        <time>2019-08-01T13:45:38Z</time>
      </trkpt>
      <trkpt lat="42.52367" lon="2.01959">
        <ele>2028.2</ele>
        <time>2019-08-01T13:45:43Z</time>
      </trkpt>
      <trkpt lat="42.52365" lon="2.01952">
        <ele>2025.6</ele>
        <time>2019-08-01T13:45:48Z</time>
      </trkpt>
      <trkpt lat="42.52364" lon="2.01946">
        <ele>2025.2</ele>
        <time>2019-08-01T13:45:53Z</time>
      </trkpt>
      <trkpt lat="42.52362" lon="2.01939">
        <ele>2026.2</ele>
        <time>2019-08-01T13:45:58Z</time>
      </trkpt>
      <trkpt lat="42.52361" lon="2.01932">
        <ele>2026.8</ele>
        <time>2019-08-01T13:46:03Z</time>
      </trkpt>
      <trkpt lat="42.52359" lon="2.01926">
        <ele>2026.8</ele>
        <time>2019-08-01T13:46:08Z</time>
      </trkpt>
      <trkpt lat="42.52357" lon="2.01918">
        <ele>2026.4</ele>
        <time>2019-08-01T13:46:13Z</time>
      </trkpt>
      <trkpt lat="42.52355" lon="2.01911">
        <ele>2025</ele>
        <time>2019-08-01T13:46:18Z</time>
      </trkpt>
      <trkpt lat="42.52353" lon="2.01904">
        <ele>2025</ele>
        <time>2019-08-01T13:46:23Z</time>
      </trkpt>
      <trkpt lat="42.52351" lon="2.01897">
        <ele>2025.6</ele>
        <time>2019-08-01T13:46:28Z</time>
      </trkpt>
      <trkpt lat="42.52349" lon="2.01891">
        <ele>2023.4</ele>
        <time>2019-08-01T13:46:33Z</time>
      </trkpt>
      <trkpt lat="42.52346" lon="2.01884">
        <ele>2021.8</ele>
        <time>2019-08-01T13:46:38Z</time>
      </trkpt>
      <trkpt lat="42.52344" lon="2.01877">
        <ele>2024</ele>
        <time>2019-08-01T13:46:43Z</time>
      </trkpt>
      <trkpt lat="42.52341" lon="2.01871">
        <ele>2022.4</ele>
        <time>2019-08-01T13:46:48Z</time>
      </trkpt>
      <trkpt lat="42.52338" lon="2.01864">
        <ele>2023</ele>
        <time>2019-08-01T13:46:53Z</time>
      </trkpt>
      <trkpt lat="42.52336" lon="2.01857">
        <ele>2023</ele>
        <time>2019-08-01T13:46:58Z</time>
      </trkpt>
      <trkpt lat="42.52334" lon="2.0185">
        <ele>2022</ele>
        <time>2019-08-01T13:47:03Z</time>
      </trkpt>
      <trkpt lat="42.52331" lon="2.01844">
        <ele>2019.4</ele>
        <time>2019-08-01T13:47:08Z</time>
      </trkpt>
      <trkpt lat="42.52328" lon="2.01837">
        <ele>2020</ele>
        <time>2019-08-01T13:47:13Z</time>
      </trkpt>
      <trkpt lat="42.52326" lon="2.0183">
        <ele>2018.8</ele>
        <time>2019-08-01T13:47:18Z</time>
      </trkpt>
      <trkpt lat="42.52323" lon="2.01823">
        <ele>2020.6</ele>
        <time>2019-08-01T13:47:23Z</time>
      </trkpt>
      <trkpt lat="42.5232" lon="2.01816">
        <ele>2019.2</ele>
        <time>2019-08-01T13:47:28Z</time>
      </trkpt>
      <trkpt lat="42.52318" lon="2.0181">
        <ele>2021.6</ele>
        <time>2019-08-01T13:47:33Z</time>
      </trkpt>
      <trkpt lat="42.52315" lon="2.01803">
        <ele>2020.8</ele>
        <time>2019-08-01T13:47:38Z</time>
      </trkpt>
      <trkpt lat="42.52313" lon="2.01797">
        <ele>2019.4</ele>
        <time>2019-08-01T13:47:43Z</time>
      </trkpt>
      <trkpt lat="42.5231" lon="2.0179">
        <ele>2019.2</ele>
        <time>2019-08-01T13:47:48Z</time>
      </trkpt>
      <trkpt lat="42.52308" lon="2.01783">
        <ele>2017.6</ele>
        <time>2019-08-01T13:47:53Z</time>
      </trkpt>
      <trkpt lat="42.52306" lon="2.01777">
        <ele>2019.2</ele>
        <time>2019-08-01T13:47:58Z</time>
      </trkpt>
      <trkpt lat="42.52305" lon="2.01774">
        <ele>2018.6</ele>
        <time>2019-08-01T13:48:03Z</time>
      </trkpt>
      <trkpt lat="42.52305" lon="2.01774">
        <ele>2018.6</ele>
        <time>2019-08-01T13:48:13Z</time>
      </trkpt>
      <trkpt lat="42.52304" lon="2.01772">
        <ele>2019</ele>
        <time>2019-08-01T13:48:18Z</time>
      </trkpt>
      <trkpt lat="42.52303" lon="2.0177">
        <ele>2018.8</ele>
        <time>2019-08-01T13:48:23Z</time>
      </trkpt>
      <trkpt lat="42.52301" lon="2.01767">
        <ele>2016</ele>
        <time>2019-08-01T13:48:28Z</time>
      </trkpt>
      <trkpt lat="42.523" lon="2.01759">
        <ele>2016</ele>
        <time>2019-08-01T13:48:33Z</time>
      </trkpt>
      <trkpt lat="42.52299" lon="2.01751">
        <ele>2017.2</ele>
        <time>2019-08-01T13:48:38Z</time>
      </trkpt>
      <trkpt lat="42.52297" lon="2.01742">
        <ele>2018.6</ele>
        <time>2019-08-01T13:48:43Z</time>
      </trkpt>
      <trkpt lat="42.52296" lon="2.01735">
        <ele>2019</ele>
        <time>2019-08-01T13:48:48Z</time>
      </trkpt>
      <trkpt lat="42.52294" lon="2.01727">
        <ele>2016.8</ele>
        <time>2019-08-01T13:48:53Z</time>
      </trkpt>
      <trkpt lat="42.52294" lon="2.01723">
        <ele>2015.6</ele>
        <time>2019-08-01T13:48:58Z</time>
      </trkpt>
      <trkpt lat="42.52294" lon="2.01723">
        <ele>2016</ele>
        <time>2019-08-01T13:49:08Z</time>
      </trkpt>
      <trkpt lat="42.52293" lon="2.01719">
        <ele>2021</ele>
        <time>2019-08-01T13:49:13Z</time>
      </trkpt>
      <trkpt lat="42.52292" lon="2.01711">
        <ele>2014.6</ele>
        <time>2019-08-01T13:49:18Z</time>
      </trkpt>
      <trkpt lat="42.52291" lon="2.01704">
        <ele>2018.2</ele>
        <time>2019-08-01T13:49:23Z</time>
      </trkpt>
      <trkpt lat="42.5229" lon="2.01697">
        <ele>2015.2</ele>
        <time>2019-08-01T13:49:28Z</time>
      </trkpt>
      <trkpt lat="42.52288" lon="2.0169">
        <ele>2015</ele>
        <time>2019-08-01T13:49:33Z</time>
      </trkpt>
      <trkpt lat="42.52287" lon="2.01683">
        <ele>2016.4</ele>
        <time>2019-08-01T13:49:38Z</time>
      </trkpt>
      <trkpt lat="42.52286" lon="2.01676">
        <ele>2015.4</ele>
        <time>2019-08-01T13:49:43Z</time>
      </trkpt>
      <trkpt lat="42.52285" lon="2.01669">
        <ele>2015.2</ele>
        <time>2019-08-01T13:49:48Z</time>
      </trkpt>
      <trkpt lat="42.52283" lon="2.01661">
        <ele>2010.8</ele>
        <time>2019-08-01T13:49:53Z</time>
      </trkpt>
      <trkpt lat="42.52282" lon="2.01654">
        <ele>2012.4</ele>
        <time>2019-08-01T13:49:58Z</time>
      </trkpt>
      <trkpt lat="42.52281" lon="2.01647">
        <ele>2013</ele>
        <time>2019-08-01T13:50:03Z</time>
      </trkpt>
      <trkpt lat="42.5228" lon="2.01639">
        <ele>2012.6</ele>
        <time>2019-08-01T13:50:08Z</time>
      </trkpt>
      <trkpt lat="42.52279" lon="2.01632">
        <ele>2014.6</ele>
        <time>2019-08-01T13:50:13Z</time>
      </trkpt>
      <trkpt lat="42.52278" lon="2.01625">
        <ele>2013.2</ele>
        <time>2019-08-01T13:50:18Z</time>
      </trkpt>
      <trkpt lat="42.52277" lon="2.01618">
        <ele>2013.8</ele>
        <time>2019-08-01T13:50:23Z</time>
      </trkpt>
      <trkpt lat="42.52276" lon="2.01611">
        <ele>2013.6</ele>
        <time>2019-08-01T13:50:28Z</time>
      </trkpt>
      <trkpt lat="42.52274" lon="2.01604">
        <ele>2011.4</ele>
        <time>2019-08-01T13:50:33Z</time>
      </trkpt>
      <trkpt lat="42.52273" lon="2.01596">
        <ele>2013.4</ele>
        <time>2019-08-01T13:50:38Z</time>
      </trkpt>
      <trkpt lat="42.52273" lon="2.01589">
        <ele>2009.4</ele>
        <time>2019-08-01T13:50:43Z</time>
      </trkpt>
      <trkpt lat="42.52272" lon="2.01582">
        <ele>2016</ele>
        <time>2019-08-01T13:50:48Z</time>
      </trkpt>
      <trkpt lat="42.52272" lon="2.01575">
        <ele>2011.6</ele>
        <time>2019-08-01T13:50:53Z</time>
      </trkpt>
      <trkpt lat="42.52272" lon="2.01568">
        <ele>2008.4</ele>
        <time>2019-08-01T13:50:58Z</time>
      </trkpt>
      <trkpt lat="42.52272" lon="2.01561">
        <ele>2008.8</ele>
        <time>2019-08-01T13:51:03Z</time>
      </trkpt>
      <trkpt lat="42.52272" lon="2.01554">
        <ele>2013.4</ele>
        <time>2019-08-01T13:51:08Z</time>
      </trkpt>
      <trkpt lat="42.52273" lon="2.01547">
        <ele>2011.8</ele>
        <time>2019-08-01T13:51:13Z</time>
      </trkpt>
      <trkpt lat="42.52272" lon="2.01539">
        <ele>2012.4</ele>
        <time>2019-08-01T13:51:18Z</time>
      </trkpt>
      <trkpt lat="42.52272" lon="2.01533">
        <ele>2014.6</ele>
        <time>2019-08-01T13:51:23Z</time>
      </trkpt>
      <trkpt lat="42.52273" lon="2.01526">
        <ele>2012.2</ele>
        <time>2019-08-01T13:51:28Z</time>
      </trkpt>
      <trkpt lat="42.52275" lon="2.01518">
        <ele>2009.6</ele>
        <time>2019-08-01T13:51:33Z</time>
      </trkpt>
      <trkpt lat="42.52276" lon="2.0151">
        <ele>2007.8</ele>
        <time>2019-08-01T13:51:38Z</time>
      </trkpt>
      <trkpt lat="42.52277" lon="2.01504">
        <ele>2012</ele>
        <time>2019-08-01T13:51:43Z</time>
      </trkpt>
      <trkpt lat="42.5228" lon="2.01498">
        <ele>2013.4</ele>
        <time>2019-08-01T13:51:48Z</time>
      </trkpt>
      <trkpt lat="42.52282" lon="2.01491">
        <ele>2011.2</ele>
        <time>2019-08-01T13:51:53Z</time>
      </trkpt>
      <trkpt lat="42.52285" lon="2.01485">
        <ele>2011.2</ele>
        <time>2019-08-01T13:51:58Z</time>
      </trkpt>
      <trkpt lat="42.52288" lon="2.01479">
        <ele>2009.8</ele>
        <time>2019-08-01T13:52:03Z</time>
      </trkpt>
      <trkpt lat="42.52292" lon="2.01472">
        <ele>2012.2</ele>
        <time>2019-08-01T13:52:08Z</time>
      </trkpt>
      <trkpt lat="42.52295" lon="2.01466">
        <ele>2008.6</ele>
        <time>2019-08-01T13:52:13Z</time>
      </trkpt>
      <trkpt lat="42.52298" lon="2.0146">
        <ele>2009.4</ele>
        <time>2019-08-01T13:52:18Z</time>
      </trkpt>
      <trkpt lat="42.52301" lon="2.01454">
        <ele>2008.4</ele>
        <time>2019-08-01T13:52:23Z</time>
      </trkpt>
      <trkpt lat="42.52305" lon="2.01448">
        <ele>2007</ele>
        <time>2019-08-01T13:52:28Z</time>
      </trkpt>
      <trkpt lat="42.52309" lon="2.01443">
        <ele>2005</ele>
        <time>2019-08-01T13:52:33Z</time>
      </trkpt>
      <trkpt lat="42.52312" lon="2.01437">
        <ele>2004.4</ele>
        <time>2019-08-01T13:52:38Z</time>
      </trkpt>
      <trkpt lat="42.52316" lon="2.01432">
        <ele>2004</ele>
        <time>2019-08-01T13:52:43Z</time>
      </trkpt>
      <trkpt lat="42.5232" lon="2.01427">
        <ele>2005.2</ele>
        <time>2019-08-01T13:52:48Z</time>
      </trkpt>
      <trkpt lat="42.52323" lon="2.01422">
        <ele>2004</ele>
        <time>2019-08-01T13:52:53Z</time>
      </trkpt>
      <trkpt lat="42.52327" lon="2.01417">
        <ele>2004</ele>
        <time>2019-08-01T13:52:58Z</time>
      </trkpt>
      <trkpt lat="42.52331" lon="2.01412">
        <ele>2003.4</ele>
        <time>2019-08-01T13:53:03Z</time>
      </trkpt>
      <trkpt lat="42.52335" lon="2.01408">
        <ele>2001.6</ele>
        <time>2019-08-01T13:53:08Z</time>
      </trkpt>
      <trkpt lat="42.5234" lon="2.01404">
        <ele>2006.4</ele>
        <time>2019-08-01T13:53:13Z</time>
      </trkpt>
      <trkpt lat="42.52345" lon="2.014">
        <ele>2004.4</ele>
        <time>2019-08-01T13:53:18Z</time>
      </trkpt>
      <trkpt lat="42.52349" lon="2.01397">
        <ele>2002.4</ele>
        <time>2019-08-01T13:53:23Z</time>
      </trkpt>
      <trkpt lat="42.52353" lon="2.01393">
        <ele>2001.6</ele>
        <time>2019-08-01T13:53:28Z</time>
      </trkpt>
      <trkpt lat="42.52357" lon="2.01389">
        <ele>2003.8</ele>
        <time>2019-08-01T13:53:33Z</time>
      </trkpt>
      <trkpt lat="42.52361" lon="2.01384">
        <ele>2001.6</ele>
        <time>2019-08-01T13:53:38Z</time>
      </trkpt>
      <trkpt lat="42.52364" lon="2.01379">
        <ele>2002.2</ele>
        <time>2019-08-01T13:53:43Z</time>
      </trkpt>
      <trkpt lat="42.52368" lon="2.01375">
        <ele>2001.4</ele>
        <time>2019-08-01T13:53:48Z</time>
      </trkpt>
      <trkpt lat="42.52371" lon="2.0137">
        <ele>2005</ele>
        <time>2019-08-01T13:53:53Z</time>
      </trkpt>
      <trkpt lat="42.52373" lon="2.01364">
        <ele>2003.2</ele>
        <time>2019-08-01T13:53:58Z</time>
      </trkpt>
      <trkpt lat="42.52375" lon="2.01357">
        <ele>2003</ele>
        <time>2019-08-01T13:54:03Z</time>
      </trkpt>
      <trkpt lat="42.52378" lon="2.01351">
        <ele>2001.6</ele>
        <time>2019-08-01T13:54:08Z</time>
      </trkpt>
      <trkpt lat="42.5238" lon="2.01344">
        <ele>2004.2</ele>
        <time>2019-08-01T13:54:13Z</time>
      </trkpt>
      <trkpt lat="42.52382" lon="2.01338">
        <ele>2001.8</ele>
        <time>2019-08-01T13:54:18Z</time>
      </trkpt>
      <trkpt lat="42.52384" lon="2.01331">
        <ele>2001.4</ele>
        <time>2019-08-01T13:54:23Z</time>
      </trkpt>
      <trkpt lat="42.52384" lon="2.01324">
        <ele>2001.6</ele>
        <time>2019-08-01T13:54:28Z</time>
      </trkpt>
      <trkpt lat="42.52383" lon="2.01317">
        <ele>2000</ele>
        <time>2019-08-01T13:54:33Z</time>
      </trkpt>
      <trkpt lat="42.5238" lon="2.01311">
        <ele>2004.4</ele>
        <time>2019-08-01T13:54:38Z</time>
      </trkpt>
      <trkpt lat="42.52378" lon="2.01304">
        <ele>2001.2</ele>
        <time>2019-08-01T13:54:43Z</time>
      </trkpt>
      <trkpt lat="42.52375" lon="2.01298">
        <ele>1998.6</ele>
        <time>2019-08-01T13:54:48Z</time>
      </trkpt>
      <trkpt lat="42.52373" lon="2.01292">
        <ele>2002</ele>
        <time>2019-08-01T13:54:53Z</time>
      </trkpt>
      <trkpt lat="42.5237" lon="2.01285">
        <ele>2001</ele>
        <time>2019-08-01T13:54:58Z</time>
      </trkpt>
      <trkpt lat="42.52367" lon="2.01278">
        <ele>2002.8</ele>
        <time>2019-08-01T13:55:03Z</time>
      </trkpt>
      <trkpt lat="42.52363" lon="2.01272">
        <ele>2002.2</ele>
        <time>2019-08-01T13:55:08Z</time>
      </trkpt>
      <trkpt lat="42.52359" lon="2.01267">
        <ele>2000.6</ele>
        <time>2019-08-01T13:55:13Z</time>
      </trkpt>
      <trkpt lat="42.52355" lon="2.01263">
        <ele>2003.8</ele>
        <time>2019-08-01T13:55:18Z</time>
      </trkpt>
      <trkpt lat="42.52349" lon="2.0126">
        <ele>2000.2</ele>
        <time>2019-08-01T13:55:23Z</time>
      </trkpt>
      <trkpt lat="42.52344" lon="2.01257">
        <ele>1998.2</ele>
        <time>2019-08-01T13:55:28Z</time>
      </trkpt>
      <trkpt lat="42.52339" lon="2.01254">
        <ele>1999.4</ele>
        <time>2019-08-01T13:55:33Z</time>
      </trkpt>
      <trkpt lat="42.52334" lon="2.01251">
        <ele>2000.8</ele>
        <time>2019-08-01T13:55:38Z</time>
      </trkpt>
      <trkpt lat="42.52329" lon="2.01247">
        <ele>2001.2</ele>
        <time>2019-08-01T13:55:43Z</time>
      </trkpt>
      <trkpt lat="42.52325" lon="2.01243">
        <ele>2000.4</ele>
        <time>2019-08-01T13:55:48Z</time>
      </trkpt>
      <trkpt lat="42.52321" lon="2.01238">
        <ele>2000.8</ele>
        <time>2019-08-01T13:55:53Z</time>
      </trkpt>
      <trkpt lat="42.52317" lon="2.01233">
        <ele>1998.2</ele>
        <time>2019-08-01T13:55:58Z</time>
      </trkpt>
      <trkpt lat="42.52313" lon="2.0123">
        <ele>1995.8</ele>
        <time>2019-08-01T13:56:03Z</time>
      </trkpt>
      <trkpt lat="42.5231" lon="2.01227">
        <ele>1999.2</ele>
        <time>2019-08-01T13:56:08Z</time>
      </trkpt>
      <trkpt lat="42.5231" lon="2.01227">
        <ele>1999.2</ele>
        <time>2019-08-01T13:56:13Z</time>
      </trkpt>
      <trkpt lat="42.52307" lon="2.01228">
        <ele>1999.4</ele>
        <time>2019-08-01T13:56:18Z</time>
      </trkpt>
      <trkpt lat="42.52307" lon="2.01228">
        <ele>1999.2</ele>
        <time>2019-08-01T13:56:23Z</time>
      </trkpt>
      <trkpt lat="42.52306" lon="2.01227">
        <ele>1997.2</ele>
        <time>2019-08-01T13:56:28Z</time>
      </trkpt>
      <trkpt lat="42.52306" lon="2.01227">
        <ele>1998</ele>
        <time>2019-08-01T13:56:38Z</time>
      </trkpt>
      <trkpt lat="42.52303" lon="2.01226">
        <ele>1998</ele>
        <time>2019-08-01T13:56:43Z</time>
      </trkpt>
      <trkpt lat="42.52303" lon="2.01226">
        <ele>1998.2</ele>
        <time>2019-08-01T13:56:53Z</time>
      </trkpt>
      <trkpt lat="42.52301" lon="2.01225">
        <ele>2002.2</ele>
        <time>2019-08-01T13:56:58Z</time>
      </trkpt>
      <trkpt lat="42.52301" lon="2.01225">
        <ele>2000.8</ele>
        <time>2019-08-01T13:57:08Z</time>
      </trkpt>
      <trkpt lat="42.52297" lon="2.01222">
        <ele>2003</ele>
        <time>2019-08-01T13:57:13Z</time>
      </trkpt>
      <trkpt lat="42.52291" lon="2.01218">
        <ele>2000</ele>
        <time>2019-08-01T13:57:18Z</time>
      </trkpt>
      <trkpt lat="42.52284" lon="2.01215">
        <ele>1997.4</ele>
        <time>2019-08-01T13:57:23Z</time>
      </trkpt>
      <trkpt lat="42.52278" lon="2.01213">
        <ele>2000.4</ele>
        <time>2019-08-01T13:57:28Z</time>
      </trkpt>
      <trkpt lat="42.52272" lon="2.01211">
        <ele>2000.6</ele>
        <time>2019-08-01T13:57:33Z</time>
      </trkpt>
      <trkpt lat="42.52266" lon="2.01209">
        <ele>1998.2</ele>
        <time>2019-08-01T13:57:38Z</time>
      </trkpt>
      <trkpt lat="42.5226" lon="2.01206">
        <ele>1997.8</ele>
        <time>2019-08-01T13:57:43Z</time>
      </trkpt>
      <trkpt lat="42.52254" lon="2.01204">
        <ele>1997.4</ele>
        <time>2019-08-01T13:57:48Z</time>
      </trkpt>
      <trkpt lat="42.52249" lon="2.01203">
        <ele>1998.8</ele>
        <time>2019-08-01T13:57:53Z</time>
      </trkpt>
      <trkpt lat="42.52244" lon="2.01202">
        <ele>1997</ele>
        <time>2019-08-01T13:57:58Z</time>
      </trkpt>
      <trkpt lat="42.52238" lon="2.01202">
        <ele>1996.4</ele>
        <time>2019-08-01T13:58:03Z</time>
      </trkpt>
      <trkpt lat="42.52232" lon="2.01201">
        <ele>1996.6</ele>
        <time>2019-08-01T13:58:08Z</time>
      </trkpt>
      <trkpt lat="42.52227" lon="2.012">
        <ele>1995</ele>
        <time>2019-08-01T13:58:13Z</time>
      </trkpt>
      <trkpt lat="42.52222" lon="2.01199">
        <ele>1996.6</ele>
        <time>2019-08-01T13:58:18Z</time>
      </trkpt>
      <trkpt lat="42.52217" lon="2.01197">
        <ele>1994.8</ele>
        <time>2019-08-01T13:58:23Z</time>
      </trkpt>
      <trkpt lat="42.52211" lon="2.01196">
        <ele>1995.2</ele>
        <time>2019-08-01T13:58:28Z</time>
      </trkpt>
      <trkpt lat="42.52206" lon="2.01194">
        <ele>1995.2</ele>
        <time>2019-08-01T13:58:33Z</time>
      </trkpt>
      <trkpt lat="42.52201" lon="2.01193">
        <ele>1995.8</ele>
        <time>2019-08-01T13:58:38Z</time>
      </trkpt>
      <trkpt lat="42.52196" lon="2.01192">
        <ele>1997</ele>
        <time>2019-08-01T13:58:43Z</time>
      </trkpt>
      <trkpt lat="42.52191" lon="2.01191">
        <ele>1993.2</ele>
        <time>2019-08-01T13:58:48Z</time>
      </trkpt>
      <trkpt lat="42.52186" lon="2.01191">
        <ele>1995</ele>
        <time>2019-08-01T13:58:53Z</time>
      </trkpt>
      <trkpt lat="42.5218" lon="2.01192">
        <ele>1994.8</ele>
        <time>2019-08-01T13:58:58Z</time>
      </trkpt>
      <trkpt lat="42.52175" lon="2.01192">
        <ele>1998.2</ele>
        <time>2019-08-01T13:59:03Z</time>
      </trkpt>
      <trkpt lat="42.5217" lon="2.01193">
        <ele>1998.2</ele>
        <time>2019-08-01T13:59:08Z</time>
      </trkpt>
      <trkpt lat="42.52165" lon="2.01194">
        <ele>2000</ele>
        <time>2019-08-01T13:59:13Z</time>
      </trkpt>
      <trkpt lat="42.5216" lon="2.01195">
        <ele>1994.4</ele>
        <time>2019-08-01T13:59:18Z</time>
      </trkpt>
      <trkpt lat="42.52154" lon="2.01194">
        <ele>1998.4</ele>
        <time>2019-08-01T13:59:23Z</time>
      </trkpt>
      <trkpt lat="42.52149" lon="2.01193">
        <ele>1997.8</ele>
        <time>2019-08-01T13:59:28Z</time>
      </trkpt>
      <trkpt lat="42.52144" lon="2.0119">
        <ele>1998.6</ele>
        <time>2019-08-01T13:59:33Z</time>
      </trkpt>
      <trkpt lat="42.52139" lon="2.01186">
        <ele>1997.6</ele>
        <time>2019-08-01T13:59:38Z</time>
      </trkpt>
      <trkpt lat="42.52135" lon="2.01182">
        <ele>1999.6</ele>
        <time>2019-08-01T13:59:43Z</time>
      </trkpt>
      <trkpt lat="42.52132" lon="2.01176">
        <ele>1997</ele>
        <time>2019-08-01T13:59:48Z</time>
      </trkpt>
      <trkpt lat="42.52128" lon="2.0117">
        <ele>1996</ele>
        <time>2019-08-01T13:59:53Z</time>
      </trkpt>
      <trkpt lat="42.52125" lon="2.01165">
        <ele>1997.6</ele>
        <time>2019-08-01T13:59:58Z</time>
      </trkpt>
      <trkpt lat="42.52121" lon="2.01161">
        <ele>1997.4</ele>
        <time>2019-08-01T14:00:03Z</time>
      </trkpt>
      <trkpt lat="42.52118" lon="2.01157">
        <ele>1998.6</ele>
        <time>2019-08-01T14:00:08Z</time>
      </trkpt>
      <trkpt lat="42.52115" lon="2.01151">
        <ele>1997.2</ele>
        <time>2019-08-01T14:00:13Z</time>
      </trkpt>
      <trkpt lat="42.52112" lon="2.01145">
        <ele>1998.4</ele>
        <time>2019-08-01T14:00:18Z</time>
      </trkpt>
      <trkpt lat="42.52109" lon="2.01139">
        <ele>1995.4</ele>
        <time>2019-08-01T14:00:23Z</time>
      </trkpt>
      <trkpt lat="42.52106" lon="2.01134">
        <ele>1997.4</ele>
        <time>2019-08-01T14:00:28Z</time>
      </trkpt>
      <trkpt lat="42.52103" lon="2.01129">
        <ele>1995.2</ele>
        <time>2019-08-01T14:00:33Z</time>
      </trkpt>
      <trkpt lat="42.521" lon="2.01123">
        <ele>1996</ele>
        <time>2019-08-01T14:00:38Z</time>
      </trkpt>
      <trkpt lat="42.52096" lon="2.01117">
        <ele>1993.4</ele>
        <time>2019-08-01T14:00:43Z</time>
      </trkpt>
      <trkpt lat="42.52093" lon="2.01111">
        <ele>1995.6</ele>
        <time>2019-08-01T14:00:48Z</time>
      </trkpt>
      <trkpt lat="42.52089" lon="2.01107">
        <ele>1994.4</ele>
        <time>2019-08-01T14:00:53Z</time>
      </trkpt>
      <trkpt lat="42.52085" lon="2.01102">
        <ele>1996</ele>
        <time>2019-08-01T14:00:58Z</time>
      </trkpt>
      <trkpt lat="42.52081" lon="2.01097">
        <ele>1994</ele>
        <time>2019-08-01T14:01:03Z</time>
      </trkpt>
      <trkpt lat="42.52076" lon="2.01092">
        <ele>1994.4</ele>
        <time>2019-08-01T14:01:08Z</time>
      </trkpt>
      <trkpt lat="42.52072" lon="2.01087">
        <ele>1996.8</ele>
        <time>2019-08-01T14:01:13Z</time>
      </trkpt>
      <trkpt lat="42.52067" lon="2.01083">
        <ele>1996.6</ele>
        <time>2019-08-01T14:01:18Z</time>
      </trkpt>
      <trkpt lat="42.52063" lon="2.01079">
        <ele>1995.2</ele>
        <time>2019-08-01T14:01:23Z</time>
      </trkpt>
      <trkpt lat="42.52058" lon="2.01074">
        <ele>1993.2</ele>
        <time>2019-08-01T14:01:28Z</time>
      </trkpt>
      <trkpt lat="42.52055" lon="2.01068">
        <ele>1991.6</ele>
        <time>2019-08-01T14:01:33Z</time>
      </trkpt>
      <trkpt lat="42.52051" lon="2.01062">
        <ele>1994.4</ele>
        <time>2019-08-01T14:01:38Z</time>
      </trkpt>
      <trkpt lat="42.52048" lon="2.01056">
        <ele>1994.8</ele>
        <time>2019-08-01T14:01:43Z</time>
      </trkpt>
      <trkpt lat="42.52045" lon="2.0105">
        <ele>1992.4</ele>
        <time>2019-08-01T14:01:48Z</time>
      </trkpt>
      <trkpt lat="42.52043" lon="2.01046">
        <ele>1986.8</ele>
        <time>2019-08-01T14:01:53Z</time>
      </trkpt>
      <trkpt lat="42.52041" lon="2.01041">
        <ele>1990.8</ele>
        <time>2019-08-01T14:01:58Z</time>
      </trkpt>
      <trkpt lat="42.52038" lon="2.01035">
        <ele>1989.2</ele>
        <time>2019-08-01T14:02:03Z</time>
      </trkpt>
      <trkpt lat="42.52034" lon="2.0103">
        <ele>1990.4</ele>
        <time>2019-08-01T14:02:08Z</time>
      </trkpt>
      <trkpt lat="42.5203" lon="2.01025">
        <ele>1992.2</ele>
        <time>2019-08-01T14:02:13Z</time>
      </trkpt>
      <trkpt lat="42.52027" lon="2.01019">
        <ele>1992.6</ele>
        <time>2019-08-01T14:02:18Z</time>
      </trkpt>
      <trkpt lat="42.52023" lon="2.01014">
        <ele>1991</ele>
        <time>2019-08-01T14:02:23Z</time>
      </trkpt>
      <trkpt lat="42.5202" lon="2.01008">
        <ele>1991.2</ele>
        <time>2019-08-01T14:02:28Z</time>
      </trkpt>
      <trkpt lat="42.52017" lon="2.01003">
        <ele>1988.6</ele>
        <time>2019-08-01T14:02:33Z</time>
      </trkpt>
      <trkpt lat="42.52013" lon="2.00998">
        <ele>1990.6</ele>
        <time>2019-08-01T14:02:38Z</time>
      </trkpt>
      <trkpt lat="42.52008" lon="2.00994">
        <ele>1991.8</ele>
        <time>2019-08-01T14:02:43Z</time>
      </trkpt>
      <trkpt lat="42.52004" lon="2.0099">
        <ele>1991.8</ele>
        <time>2019-08-01T14:02:48Z</time>
      </trkpt>
      <trkpt lat="42.52" lon="2.00986">
        <ele>1991</ele>
        <time>2019-08-01T14:02:53Z</time>
      </trkpt>
      <trkpt lat="42.51996" lon="2.00981">
        <ele>1991</ele>
        <time>2019-08-01T14:02:58Z</time>
      </trkpt>
      <trkpt lat="42.51992" lon="2.00977">
        <ele>1992</ele>
        <time>2019-08-01T14:03:03Z</time>
      </trkpt>
      <trkpt lat="42.51988" lon="2.00973">
        <ele>1991.8</ele>
        <time>2019-08-01T14:03:08Z</time>
      </trkpt>
      <trkpt lat="42.51983" lon="2.00969">
        <ele>1989</ele>
        <time>2019-08-01T14:03:13Z</time>
      </trkpt>
      <trkpt lat="42.51978" lon="2.00966">
        <ele>1990.6</ele>
        <time>2019-08-01T14:03:18Z</time>
      </trkpt>
      <trkpt lat="42.51973" lon="2.00963">
        <ele>1989</ele>
        <time>2019-08-01T14:03:23Z</time>
      </trkpt>
      <trkpt lat="42.51967" lon="2.00962">
        <ele>1990.4</ele>
        <time>2019-08-01T14:03:28Z</time>
      </trkpt>
      <trkpt lat="42.51962" lon="2.00961">
        <ele>1989.6</ele>
        <time>2019-08-01T14:03:33Z</time>
      </trkpt>
      <trkpt lat="42.51956" lon="2.0096">
        <ele>1986.6</ele>
        <time>2019-08-01T14:03:38Z</time>
      </trkpt>
      <trkpt lat="42.51951" lon="2.00959">
        <ele>1988.8</ele>
        <time>2019-08-01T14:03:43Z</time>
      </trkpt>
      <trkpt lat="42.51946" lon="2.00959">
        <ele>1988</ele>
        <time>2019-08-01T14:03:48Z</time>
      </trkpt>
      <trkpt lat="42.51941" lon="2.0096">
        <ele>1987</ele>
        <time>2019-08-01T14:03:53Z</time>
      </trkpt>
      <trkpt lat="42.51935" lon="2.00962">
        <ele>1986.2</ele>
        <time>2019-08-01T14:03:58Z</time>
      </trkpt>
      <trkpt lat="42.5193" lon="2.00964">
        <ele>1986.2</ele>
        <time>2019-08-01T14:04:03Z</time>
      </trkpt>
      <trkpt lat="42.51925" lon="2.00966">
        <ele>1986.8</ele>
        <time>2019-08-01T14:04:08Z</time>
      </trkpt>
      <trkpt lat="42.5192" lon="2.00968">
        <ele>1985.2</ele>
        <time>2019-08-01T14:04:13Z</time>
      </trkpt>
      <trkpt lat="42.51915" lon="2.00971">
        <ele>1986</ele>
        <time>2019-08-01T14:04:18Z</time>
      </trkpt>
      <trkpt lat="42.5191" lon="2.00974">
        <ele>1985.4</ele>
        <time>2019-08-01T14:04:23Z</time>
      </trkpt>
      <trkpt lat="42.51905" lon="2.00978">
        <ele>1982</ele>
        <time>2019-08-01T14:04:28Z</time>
      </trkpt>
      <trkpt lat="42.51901" lon="2.00981">
        <ele>1984.2</ele>
        <time>2019-08-01T14:04:33Z</time>
      </trkpt>
      <trkpt lat="42.51896" lon="2.00984">
        <ele>1985</ele>
        <time>2019-08-01T14:04:38Z</time>
      </trkpt>
      <trkpt lat="42.51891" lon="2.00987">
        <ele>1983.2</ele>
        <time>2019-08-01T14:04:43Z</time>
      </trkpt>
      <trkpt lat="42.51886" lon="2.0099">
        <ele>1980</ele>
        <time>2019-08-01T14:04:48Z</time>
      </trkpt>
      <trkpt lat="42.51881" lon="2.00992">
        <ele>1982.4</ele>
        <time>2019-08-01T14:04:53Z</time>
      </trkpt>
      <trkpt lat="42.51876" lon="2.00994">
        <ele>1985</ele>
        <time>2019-08-01T14:04:58Z</time>
      </trkpt>
      <trkpt lat="42.51871" lon="2.00996">
        <ele>1983</ele>
        <time>2019-08-01T14:05:03Z</time>
      </trkpt>
      <trkpt lat="42.51866" lon="2.00999">
        <ele>1981.8</ele>
        <time>2019-08-01T14:05:08Z</time>
      </trkpt>
      <trkpt lat="42.51861" lon="2.01002">
        <ele>1983.8</ele>
        <time>2019-08-01T14:05:13Z</time>
      </trkpt>
      <trkpt lat="42.51856" lon="2.01005">
        <ele>1981.2</ele>
        <time>2019-08-01T14:05:18Z</time>
      </trkpt>
      <trkpt lat="42.51851" lon="2.01009">
        <ele>1981.6</ele>
        <time>2019-08-01T14:05:23Z</time>
      </trkpt>
      <trkpt lat="42.51846" lon="2.01011">
        <ele>1979</ele>
        <time>2019-08-01T14:05:28Z</time>
      </trkpt>
      <trkpt lat="42.51841" lon="2.01012">
        <ele>1979</ele>
        <time>2019-08-01T14:05:33Z</time>
      </trkpt>
      <trkpt lat="42.51836" lon="2.01012">
        <ele>1978.8</ele>
        <time>2019-08-01T14:05:38Z</time>
      </trkpt>
      <trkpt lat="42.5183" lon="2.01012">
        <ele>1981</ele>
        <time>2019-08-01T14:05:43Z</time>
      </trkpt>
      <trkpt lat="42.51825" lon="2.01013">
        <ele>1980.8</ele>
        <time>2019-08-01T14:05:48Z</time>
      </trkpt>
      <trkpt lat="42.5182" lon="2.01012">
        <ele>1982.2</ele>
        <time>2019-08-01T14:05:53Z</time>
      </trkpt>
      <trkpt lat="42.51816" lon="2.01011">
        <ele>1985.6</ele>
        <time>2019-08-01T14:05:58Z</time>
      </trkpt>
      <trkpt lat="42.51811" lon="2.01007">
        <ele>1985.4</ele>
        <time>2019-08-01T14:06:03Z</time>
      </trkpt>
      <trkpt lat="42.51806" lon="2.01004">
        <ele>1985</ele>
        <time>2019-08-01T14:06:08Z</time>
      </trkpt>
      <trkpt lat="42.51802" lon="2.01">
        <ele>1985.6</ele>
        <time>2019-08-01T14:06:13Z</time>
      </trkpt>
      <trkpt lat="42.51798" lon="2.00997">
        <ele>1984.6</ele>
        <time>2019-08-01T14:06:18Z</time>
      </trkpt>
      <trkpt lat="42.51794" lon="2.00994">
        <ele>1985.4</ele>
        <time>2019-08-01T14:06:23Z</time>
      </trkpt>
      <trkpt lat="42.5179" lon="2.00991">
        <ele>1981.8</ele>
        <time>2019-08-01T14:06:28Z</time>
      </trkpt>
      <trkpt lat="42.51785" lon="2.00987">
        <ele>1984.6</ele>
        <time>2019-08-01T14:06:33Z</time>
      </trkpt>
      <trkpt lat="42.51781" lon="2.00984">
        <ele>1984.6</ele>
        <time>2019-08-01T14:06:38Z</time>
      </trkpt>
      <trkpt lat="42.51777" lon="2.0098">
        <ele>1983.6</ele>
        <time>2019-08-01T14:06:43Z</time>
      </trkpt>
      <trkpt lat="42.51773" lon="2.00975">
        <ele>1984</ele>
        <time>2019-08-01T14:06:48Z</time>
      </trkpt>
      <trkpt lat="42.51768" lon="2.00971">
        <ele>1980.4</ele>
        <time>2019-08-01T14:06:53Z</time>
      </trkpt>
      <trkpt lat="42.51763" lon="2.00966">
        <ele>1981.4</ele>
        <time>2019-08-01T14:06:58Z</time>
      </trkpt>
      <trkpt lat="42.5176" lon="2.00962">
        <ele>1980.2</ele>
        <time>2019-08-01T14:07:03Z</time>
      </trkpt>
      <trkpt lat="42.51757" lon="2.00958">
        <ele>1978.6</ele>
        <time>2019-08-01T14:07:08Z</time>
      </trkpt>
      <trkpt lat="42.51756" lon="2.00955">
        <ele>1979.2</ele>
        <time>2019-08-01T14:07:13Z</time>
      </trkpt>
      <trkpt lat="42.51755" lon="2.00954">
        <ele>1979.6</ele>
        <time>2019-08-01T14:07:58Z</time>
      </trkpt>
      <trkpt lat="42.51754" lon="2.00953">
        <ele>1979.6</ele>
        <time>2019-08-01T14:08:03Z</time>
      </trkpt>
      <trkpt lat="42.51753" lon="2.00952">
        <ele>1979.4</ele>
        <time>2019-08-01T14:08:33Z</time>
      </trkpt>
      <trkpt lat="42.51751" lon="2.00955">
        <ele>1976.2</ele>
        <time>2019-08-01T14:08:53Z</time>
      </trkpt>
      <trkpt lat="42.5175" lon="2.00957">
        <ele>1976.4</ele>
        <time>2019-08-01T14:08:58Z</time>
      </trkpt>
      <trkpt lat="42.5175" lon="2.00963">
        <ele>1979</ele>
        <time>2019-08-01T14:09:03Z</time>
      </trkpt>
      <trkpt lat="42.51749" lon="2.00966">
        <ele>1978.6</ele>
        <time>2019-08-01T14:09:08Z</time>
      </trkpt>
      <trkpt lat="42.51747" lon="2.00968">
        <ele>1981.8</ele>
        <time>2019-08-01T14:09:13Z</time>
      </trkpt>
      <trkpt lat="42.51744" lon="2.00973">
        <ele>1978.4</ele>
        <time>2019-08-01T14:09:18Z</time>
      </trkpt>
      <trkpt lat="42.5174" lon="2.00978">
        <ele>1978.4</ele>
        <time>2019-08-01T14:09:23Z</time>
      </trkpt>
      <trkpt lat="42.51737" lon="2.00983">
        <ele>1976.2</ele>
        <time>2019-08-01T14:09:28Z</time>
      </trkpt>
      <trkpt lat="42.51737" lon="2.00983">
        <ele>1976.2</ele>
        <time>2019-08-01T14:09:33Z</time>
      </trkpt>
      <trkpt lat="42.51736" lon="2.00984">
        <ele>1976.8</ele>
        <time>2019-08-01T14:09:38Z</time>
      </trkpt>
      <trkpt lat="42.51736" lon="2.00985">
        <ele>1976.2</ele>
        <time>2019-08-01T14:09:53Z</time>
      </trkpt>
      <trkpt lat="42.51734" lon="2.00989">
        <ele>1974.2</ele>
        <time>2019-08-01T14:09:58Z</time>
      </trkpt>
      <trkpt lat="42.51733" lon="2.00992">
        <ele>1974.4</ele>
        <time>2019-08-01T14:10:03Z</time>
      </trkpt>
      <trkpt lat="42.51732" lon="2.00996">
        <ele>1977</ele>
        <time>2019-08-01T14:10:08Z</time>
      </trkpt>
      <trkpt lat="42.5173" lon="2.01002">
        <ele>1975.6</ele>
        <time>2019-08-01T14:10:13Z</time>
      </trkpt>
      <trkpt lat="42.51728" lon="2.01007">
        <ele>1974.4</ele>
        <time>2019-08-01T14:10:18Z</time>
      </trkpt>
      <trkpt lat="42.51727" lon="2.01014">
        <ele>1974.8</ele>
        <time>2019-08-01T14:10:23Z</time>
      </trkpt>
      <trkpt lat="42.51725" lon="2.0102">
        <ele>1973.4</ele>
        <time>2019-08-01T14:10:28Z</time>
      </trkpt>
      <trkpt lat="42.51723" lon="2.01026">
        <ele>1975</ele>
        <time>2019-08-01T14:10:33Z</time>
      </trkpt>
      <trkpt lat="42.51721" lon="2.01032">
        <ele>1974.2</ele>
        <time>2019-08-01T14:10:38Z</time>
      </trkpt>
      <trkpt lat="42.51718" lon="2.01038">
        <ele>1974.2</ele>
        <time>2019-08-01T14:10:43Z</time>
      </trkpt>
      <trkpt lat="42.51714" lon="2.01043">
        <ele>1971.6</ele>
        <time>2019-08-01T14:10:48Z</time>
      </trkpt>
      <trkpt lat="42.51711" lon="2.01049">
        <ele>1973</ele>
        <time>2019-08-01T14:10:53Z</time>
      </trkpt>
      <trkpt lat="42.51708" lon="2.01055">
        <ele>1973.2</ele>
        <time>2019-08-01T14:10:58Z</time>
      </trkpt>
      <trkpt lat="42.51704" lon="2.0106">
        <ele>1972.8</ele>
        <time>2019-08-01T14:11:03Z</time>
      </trkpt>
      <trkpt lat="42.51701" lon="2.01065">
        <ele>1970</ele>
        <time>2019-08-01T14:11:08Z</time>
      </trkpt>
      <trkpt lat="42.51698" lon="2.01068">
        <ele>1970.4</ele>
        <time>2019-08-01T14:11:13Z</time>
      </trkpt>
      <trkpt lat="42.51695" lon="2.01071">
        <ele>1971.2</ele>
        <time>2019-08-01T14:11:18Z</time>
      </trkpt>
      <trkpt lat="42.51692" lon="2.01073">
        <ele>1970.4</ele>
        <time>2019-08-01T14:11:23Z</time>
      </trkpt>
      <trkpt lat="42.51688" lon="2.01077">
        <ele>1973.8</ele>
        <time>2019-08-01T14:11:28Z</time>
      </trkpt>
      <trkpt lat="42.51684" lon="2.01082">
        <ele>1973</ele>
        <time>2019-08-01T14:11:33Z</time>
      </trkpt>
      <trkpt lat="42.5168" lon="2.01087">
        <ele>1972.4</ele>
        <time>2019-08-01T14:11:38Z</time>
      </trkpt>
      <trkpt lat="42.51677" lon="2.01092">
        <ele>1971</ele>
        <time>2019-08-01T14:11:43Z</time>
      </trkpt>
      <trkpt lat="42.51674" lon="2.01098">
        <ele>1971.8</ele>
        <time>2019-08-01T14:11:48Z</time>
      </trkpt>
      <trkpt lat="42.51671" lon="2.01104">
        <ele>1972.4</ele>
        <time>2019-08-01T14:11:53Z</time>
      </trkpt>
      <trkpt lat="42.51668" lon="2.01108">
        <ele>1972.6</ele>
        <time>2019-08-01T14:11:58Z</time>
      </trkpt>
      <trkpt lat="42.51665" lon="2.01113">
        <ele>1969.8</ele>
        <time>2019-08-01T14:12:03Z</time>
      </trkpt>
      <trkpt lat="42.51662" lon="2.01118">
        <ele>1970.6</ele>
        <time>2019-08-01T14:12:08Z</time>
      </trkpt>
      <trkpt lat="42.51658" lon="2.01123">
        <ele>1968.2</ele>
        <time>2019-08-01T14:12:13Z</time>
      </trkpt>
      <trkpt lat="42.51655" lon="2.01129">
        <ele>1970.8</ele>
        <time>2019-08-01T14:12:18Z</time>
      </trkpt>
      <trkpt lat="42.51651" lon="2.01134">
        <ele>1972.4</ele>
        <time>2019-08-01T14:12:23Z</time>
      </trkpt>
      <trkpt lat="42.51647" lon="2.01139">
        <ele>1970.6</ele>
        <time>2019-08-01T14:12:28Z</time>
      </trkpt>
      <trkpt lat="42.51645" lon="2.01143">
        <ele>1971.2</ele>
        <time>2019-08-01T14:12:33Z</time>
      </trkpt>
      <trkpt lat="42.51642" lon="2.01148">
        <ele>1973</ele>
        <time>2019-08-01T14:12:38Z</time>
      </trkpt>
      <trkpt lat="42.5164" lon="2.01153">
        <ele>1971.4</ele>
        <time>2019-08-01T14:12:43Z</time>
      </trkpt>
      <trkpt lat="42.51636" lon="2.01159">
        <ele>1971.2</ele>
        <time>2019-08-01T14:12:48Z</time>
      </trkpt>
      <trkpt lat="42.51633" lon="2.01164">
        <ele>1970.8</ele>
        <time>2019-08-01T14:12:53Z</time>
      </trkpt>
      <trkpt lat="42.5163" lon="2.01171">
        <ele>1971</ele>
        <time>2019-08-01T14:12:58Z</time>
      </trkpt>
      <trkpt lat="42.51627" lon="2.01177">
        <ele>1971.2</ele>
        <time>2019-08-01T14:13:03Z</time>
      </trkpt>
      <trkpt lat="42.51625" lon="2.01184">
        <ele>1971.6</ele>
        <time>2019-08-01T14:13:08Z</time>
      </trkpt>
      <trkpt lat="42.51621" lon="2.01189">
        <ele>1970.8</ele>
        <time>2019-08-01T14:13:13Z</time>
      </trkpt>
      <trkpt lat="42.51618" lon="2.01193">
        <ele>1970.8</ele>
        <time>2019-08-01T14:13:18Z</time>
      </trkpt>
      <trkpt lat="42.51616" lon="2.012">
        <ele>1972.4</ele>
        <time>2019-08-01T14:13:23Z</time>
      </trkpt>
      <trkpt lat="42.51613" lon="2.01206">
        <ele>1972.6</ele>
        <time>2019-08-01T14:13:28Z</time>
      </trkpt>
      <trkpt lat="42.51613" lon="2.01206">
        <ele>1973.2</ele>
        <time>2019-08-01T14:14:03Z</time>
      </trkpt>
      <trkpt lat="42.51612" lon="2.01207">
        <ele>1970.4</ele>
        <time>2019-08-01T14:14:08Z</time>
      </trkpt>
      <trkpt lat="42.51611" lon="2.01212">
        <ele>1973.2</ele>
        <time>2019-08-01T14:14:13Z</time>
      </trkpt>
      <trkpt lat="42.51609" lon="2.01217">
        <ele>1973.6</ele>
        <time>2019-08-01T14:14:18Z</time>
      </trkpt>
      <trkpt lat="42.51609" lon="2.01222">
        <ele>1972.2</ele>
        <time>2019-08-01T14:14:23Z</time>
      </trkpt>
      <trkpt lat="42.51607" lon="2.01225">
        <ele>1974.6</ele>
        <time>2019-08-01T14:14:28Z</time>
      </trkpt>
      <trkpt lat="42.51604" lon="2.0123">
        <ele>1970.8</ele>
        <time>2019-08-01T14:14:33Z</time>
      </trkpt>
      <trkpt lat="42.51601" lon="2.01231">
        <ele>1971.2</ele>
        <time>2019-08-01T14:14:38Z</time>
      </trkpt>
      <trkpt lat="42.51599" lon="2.01225">
        <ele>1970.4</ele>
        <time>2019-08-01T14:14:43Z</time>
      </trkpt>
      <trkpt lat="42.51593" lon="2.01227">
        <ele>1965.4</ele>
        <time>2019-08-01T14:15:48Z</time>
      </trkpt>
      <trkpt lat="42.51592" lon="2.01226">
        <ele>1962.8</ele>
        <time>2019-08-01T14:15:53Z</time>
      </trkpt>
      <trkpt lat="42.51592" lon="2.01227">
        <ele>1962.8</ele>
        <time>2019-08-01T14:15:58Z</time>
      </trkpt>
      <trkpt lat="42.51591" lon="2.01227">
        <ele>1963.6</ele>
        <time>2019-08-01T14:16:08Z</time>
      </trkpt>
      <trkpt lat="42.51589" lon="2.01226">
        <ele>1963.8</ele>
        <time>2019-08-01T14:16:13Z</time>
      </trkpt>
      <trkpt lat="42.51586" lon="2.01226">
        <ele>1962.2</ele>
        <time>2019-08-01T14:16:18Z</time>
      </trkpt>
      <trkpt lat="42.51582" lon="2.01226">
        <ele>1963.8</ele>
        <time>2019-08-01T14:16:23Z</time>
      </trkpt>
      <trkpt lat="42.51579" lon="2.01222">
        <ele>1962</ele>
        <time>2019-08-01T14:16:28Z</time>
      </trkpt>
      <trkpt lat="42.51576" lon="2.01221">
        <ele>1961.4</ele>
        <time>2019-08-01T14:16:33Z</time>
      </trkpt>
      <trkpt lat="42.51572" lon="2.01222">
        <ele>1960</ele>
        <time>2019-08-01T14:16:38Z</time>
      </trkpt>
      <trkpt lat="42.51569" lon="2.01225">
        <ele>1959</ele>
        <time>2019-08-01T14:16:43Z</time>
      </trkpt>
      <trkpt lat="42.51566" lon="2.0123">
        <ele>1959.4</ele>
        <time>2019-08-01T14:16:48Z</time>
      </trkpt>
      <trkpt lat="42.51565" lon="2.01235">
        <ele>1958.4</ele>
        <time>2019-08-01T14:16:53Z</time>
      </trkpt>
      <trkpt lat="42.51562" lon="2.01241">
        <ele>1958.8</ele>
        <time>2019-08-01T14:16:58Z</time>
      </trkpt>
      <trkpt lat="42.51561" lon="2.01247">
        <ele>1953.8</ele>
        <time>2019-08-01T14:17:03Z</time>
      </trkpt>
      <trkpt lat="42.5156" lon="2.01251">
        <ele>1954.8</ele>
        <time>2019-08-01T14:17:08Z</time>
      </trkpt>
      <trkpt lat="42.51558" lon="2.01256">
        <ele>1954.2</ele>
        <time>2019-08-01T14:17:13Z</time>
      </trkpt>
      <trkpt lat="42.51558" lon="2.01261">
        <ele>1958.8</ele>
        <time>2019-08-01T14:17:18Z</time>
      </trkpt>
      <trkpt lat="42.51558" lon="2.01265">
        <ele>1954.4</ele>
        <time>2019-08-01T14:17:23Z</time>
      </trkpt>
      <trkpt lat="42.51557" lon="2.01271">
        <ele>1955.2</ele>
        <time>2019-08-01T14:17:28Z</time>
      </trkpt>
      <trkpt lat="42.51555" lon="2.01276">
        <ele>1953.6</ele>
        <time>2019-08-01T14:17:33Z</time>
      </trkpt>
      <trkpt lat="42.51553" lon="2.0128">
        <ele>1951.6</ele>
        <time>2019-08-01T14:17:38Z</time>
      </trkpt>
      <trkpt lat="42.5155" lon="2.01284">
        <ele>1952</ele>
        <time>2019-08-01T14:17:43Z</time>
      </trkpt>
      <trkpt lat="42.51547" lon="2.01289">
        <ele>1952.2</ele>
        <time>2019-08-01T14:17:48Z</time>
      </trkpt>
      <trkpt lat="42.51547" lon="2.01292">
        <ele>1950.2</ele>
        <time>2019-08-01T14:17:53Z</time>
      </trkpt>
      <trkpt lat="42.51545" lon="2.01297">
        <ele>1952</ele>
        <time>2019-08-01T14:17:58Z</time>
      </trkpt>
      <trkpt lat="42.51543" lon="2.01301">
        <ele>1950.4</ele>
        <time>2019-08-01T14:18:03Z</time>
      </trkpt>
      <trkpt lat="42.5154" lon="2.01305">
        <ele>1950.4</ele>
        <time>2019-08-01T14:18:08Z</time>
      </trkpt>
      <trkpt lat="42.51538" lon="2.01309">
        <ele>1949.8</ele>
        <time>2019-08-01T14:18:13Z</time>
      </trkpt>
      <trkpt lat="42.51536" lon="2.01314">
        <ele>1949.8</ele>
        <time>2019-08-01T14:18:18Z</time>
      </trkpt>
      <trkpt lat="42.51533" lon="2.01319">
        <ele>1952.2</ele>
        <time>2019-08-01T14:18:23Z</time>
      </trkpt>
      <trkpt lat="42.51532" lon="2.01323">
        <ele>1950.2</ele>
        <time>2019-08-01T14:18:28Z</time>
      </trkpt>
      <trkpt lat="42.51532" lon="2.01328">
        <ele>1948</ele>
        <time>2019-08-01T14:18:33Z</time>
      </trkpt>
      <trkpt lat="42.51531" lon="2.01335">
        <ele>1949.4</ele>
        <time>2019-08-01T14:18:38Z</time>
      </trkpt>
      <trkpt lat="42.51532" lon="2.0134">
        <ele>1948.2</ele>
        <time>2019-08-01T14:18:43Z</time>
      </trkpt>
      <trkpt lat="42.51534" lon="2.01346">
        <ele>1948.2</ele>
        <time>2019-08-01T14:18:48Z</time>
      </trkpt>
      <trkpt lat="42.51535" lon="2.01351">
        <ele>1947.4</ele>
        <time>2019-08-01T14:18:53Z</time>
      </trkpt>
      <trkpt lat="42.51535" lon="2.01357">
        <ele>1947.4</ele>
        <time>2019-08-01T14:18:58Z</time>
      </trkpt>
      <trkpt lat="42.51535" lon="2.01361">
        <ele>1950</ele>
        <time>2019-08-01T14:19:03Z</time>
      </trkpt>
      <trkpt lat="42.51535" lon="2.01361">
        <ele>1949.6</ele>
        <time>2019-08-01T14:19:08Z</time>
      </trkpt>
      <trkpt lat="42.51535" lon="2.01365">
        <ele>1949.6</ele>
        <time>2019-08-01T14:19:13Z</time>
      </trkpt>
      <trkpt lat="42.51535" lon="2.01366">
        <ele>1948.4</ele>
        <time>2019-08-01T14:19:23Z</time>
      </trkpt>
      <trkpt lat="42.51535" lon="2.01367">
        <ele>1947.2</ele>
        <time>2019-08-01T14:19:28Z</time>
      </trkpt>
      <trkpt lat="42.51535" lon="2.01374">
        <ele>1948</ele>
        <time>2019-08-01T14:19:33Z</time>
      </trkpt>
      <trkpt lat="42.51537" lon="2.01381">
        <ele>1946.8</ele>
        <time>2019-08-01T14:19:38Z</time>
      </trkpt>
      <trkpt lat="42.51538" lon="2.01387">
        <ele>1945.2</ele>
        <time>2019-08-01T14:19:43Z</time>
      </trkpt>
      <trkpt lat="42.51538" lon="2.01393">
        <ele>1943.4</ele>
        <time>2019-08-01T14:19:48Z</time>
      </trkpt>
      <trkpt lat="42.5154" lon="2.014">
        <ele>1941.2</ele>
        <time>2019-08-01T14:19:53Z</time>
      </trkpt>
      <trkpt lat="42.51542" lon="2.01405">
        <ele>1944.2</ele>
        <time>2019-08-01T14:19:58Z</time>
      </trkpt>
      <trkpt lat="42.51543" lon="2.01408">
        <ele>1942.2</ele>
        <time>2019-08-01T14:20:03Z</time>
      </trkpt>
      <trkpt lat="42.51545" lon="2.01413">
        <ele>1942.6</ele>
        <time>2019-08-01T14:20:08Z</time>
      </trkpt>
      <trkpt lat="42.51546" lon="2.01416">
        <ele>1940</ele>
        <time>2019-08-01T14:20:13Z</time>
      </trkpt>
      <trkpt lat="42.51546" lon="2.0142">
        <ele>1940.6</ele>
        <time>2019-08-01T14:20:18Z</time>
      </trkpt>
      <trkpt lat="42.51549" lon="2.01422">
        <ele>1936.4</ele>
        <time>2019-08-01T14:20:23Z</time>
      </trkpt>
      <trkpt lat="42.51552" lon="2.01425">
        <ele>1939.6</ele>
        <time>2019-08-01T14:20:28Z</time>
      </trkpt>
      <trkpt lat="42.51552" lon="2.01429">
        <ele>1938.6</ele>
        <time>2019-08-01T14:20:33Z</time>
      </trkpt>
      <trkpt lat="42.51553" lon="2.01431">
        <ele>1939.6</ele>
        <time>2019-08-01T14:20:38Z</time>
      </trkpt>
      <trkpt lat="42.51554" lon="2.01434">
        <ele>1940.8</ele>
        <time>2019-08-01T14:20:43Z</time>
      </trkpt>
      <trkpt lat="42.51556" lon="2.01438">
        <ele>1937.6</ele>
        <time>2019-08-01T14:20:48Z</time>
      </trkpt>
      <trkpt lat="42.5156" lon="2.01442">
        <ele>1934.4</ele>
        <time>2019-08-01T14:20:53Z</time>
      </trkpt>
      <trkpt lat="42.51563" lon="2.01445">
        <ele>1936.4</ele>
        <time>2019-08-01T14:20:58Z</time>
      </trkpt>
      <trkpt lat="42.51564" lon="2.01447">
        <ele>1935.6</ele>
        <time>2019-08-01T14:21:03Z</time>
      </trkpt>
      <trkpt lat="42.51564" lon="2.01447">
        <ele>1935.4</ele>
        <time>2019-08-01T14:21:08Z</time>
      </trkpt>
      <trkpt lat="42.51566" lon="2.01448">
        <ele>1938.2</ele>
        <time>2019-08-01T14:21:13Z</time>
      </trkpt>
      <trkpt lat="42.51568" lon="2.01451">
        <ele>1936.4</ele>
        <time>2019-08-01T14:21:18Z</time>
      </trkpt>
      <trkpt lat="42.51569" lon="2.01454">
        <ele>1937.4</ele>
        <time>2019-08-01T14:21:23Z</time>
      </trkpt>
      <trkpt lat="42.5157" lon="2.01458">
        <ele>1933.6</ele>
        <time>2019-08-01T14:21:28Z</time>
      </trkpt>
      <trkpt lat="42.51572" lon="2.01461">
        <ele>1937.4</ele>
        <time>2019-08-01T14:21:33Z</time>
      </trkpt>
      <trkpt lat="42.51574" lon="2.01466">
        <ele>1936.8</ele>
        <time>2019-08-01T14:21:38Z</time>
      </trkpt>
      <trkpt lat="42.51577" lon="2.0147">
        <ele>1935</ele>
        <time>2019-08-01T14:21:43Z</time>
      </trkpt>
      <trkpt lat="42.5158" lon="2.01474">
        <ele>1931.4</ele>
        <time>2019-08-01T14:21:48Z</time>
      </trkpt>
      <trkpt lat="42.5158" lon="2.01474">
        <ele>1931</ele>
        <time>2019-08-01T14:21:58Z</time>
      </trkpt>
      <trkpt lat="42.51581" lon="2.01475">
        <ele>1928.4</ele>
        <time>2019-08-01T14:22:03Z</time>
      </trkpt>
      <trkpt lat="42.51585" lon="2.01478">
        <ele>1928.6</ele>
        <time>2019-08-01T14:22:08Z</time>
      </trkpt>
      <trkpt lat="42.51587" lon="2.0148">
        <ele>1927.8</ele>
        <time>2019-08-01T14:22:13Z</time>
      </trkpt>
      <trkpt lat="42.51589" lon="2.01481">
        <ele>1929.2</ele>
        <time>2019-08-01T14:22:18Z</time>
      </trkpt>
      <trkpt lat="42.5159" lon="2.01482">
        <ele>1929.8</ele>
        <time>2019-08-01T14:22:23Z</time>
      </trkpt>
      <trkpt lat="42.51592" lon="2.01486">
        <ele>1929.4</ele>
        <time>2019-08-01T14:22:28Z</time>
      </trkpt>
      <trkpt lat="42.51594" lon="2.01489">
        <ele>1929</ele>
        <time>2019-08-01T14:22:33Z</time>
      </trkpt>
      <trkpt lat="42.51597" lon="2.01493">
        <ele>1928.8</ele>
        <time>2019-08-01T14:22:38Z</time>
      </trkpt>
      <trkpt lat="42.51599" lon="2.01496">
        <ele>1927.2</ele>
        <time>2019-08-01T14:22:43Z</time>
      </trkpt>
      <trkpt lat="42.51601" lon="2.01497">
        <ele>1925.2</ele>
        <time>2019-08-01T14:22:48Z</time>
      </trkpt>
      <trkpt lat="42.51603" lon="2.01499">
        <ele>1925</ele>
        <time>2019-08-01T14:22:53Z</time>
      </trkpt>
      <trkpt lat="42.51605" lon="2.01502">
        <ele>1924.4</ele>
        <time>2019-08-01T14:22:58Z</time>
      </trkpt>
      <trkpt lat="42.51608" lon="2.01503">
        <ele>1927.8</ele>
        <time>2019-08-01T14:23:03Z</time>
      </trkpt>
      <trkpt lat="42.51611" lon="2.01504">
        <ele>1926</ele>
        <time>2019-08-01T14:23:08Z</time>
      </trkpt>
      <trkpt lat="42.51613" lon="2.01505">
        <ele>1926.2</ele>
        <time>2019-08-01T14:23:13Z</time>
      </trkpt>
      <trkpt lat="42.51613" lon="2.01505">
        <ele>1926.4</ele>
        <time>2019-08-01T14:23:18Z</time>
      </trkpt>
      <trkpt lat="42.51615" lon="2.01505">
        <ele>1928.6</ele>
        <time>2019-08-01T14:23:23Z</time>
      </trkpt>
      <trkpt lat="42.51616" lon="2.01505">
        <ele>1927.4</ele>
        <time>2019-08-01T14:23:28Z</time>
      </trkpt>
      <trkpt lat="42.51617" lon="2.01507">
        <ele>1924.6</ele>
        <time>2019-08-01T14:23:33Z</time>
      </trkpt>
      <trkpt lat="42.51619" lon="2.01508">
        <ele>1921.2</ele>
        <time>2019-08-01T14:23:38Z</time>
      </trkpt>
      <trkpt lat="42.51622" lon="2.01513">
        <ele>1919.4</ele>
        <time>2019-08-01T14:23:43Z</time>
      </trkpt>
      <trkpt lat="42.51624" lon="2.01518">
        <ele>1923.2</ele>
        <time>2019-08-01T14:23:48Z</time>
      </trkpt>
      <trkpt lat="42.51626" lon="2.01524">
        <ele>1920.4</ele>
        <time>2019-08-01T14:23:53Z</time>
      </trkpt>
      <trkpt lat="42.51628" lon="2.01528">
        <ele>1921.6</ele>
        <time>2019-08-01T14:23:58Z</time>
      </trkpt>
      <trkpt lat="42.5163" lon="2.01533">
        <ele>1920</ele>
        <time>2019-08-01T14:24:03Z</time>
      </trkpt>
      <trkpt lat="42.51633" lon="2.01537">
        <ele>1918.8</ele>
        <time>2019-08-01T14:24:08Z</time>
      </trkpt>
      <trkpt lat="42.51636" lon="2.01542">
        <ele>1919.4</ele>
        <time>2019-08-01T14:24:13Z</time>
      </trkpt>
      <trkpt lat="42.51639" lon="2.01546">
        <ele>1915.8</ele>
        <time>2019-08-01T14:24:18Z</time>
      </trkpt>
      <trkpt lat="42.51641" lon="2.01548">
        <ele>1917.8</ele>
        <time>2019-08-01T14:24:23Z</time>
      </trkpt>
      <trkpt lat="42.51644" lon="2.0155">
        <ele>1914.8</ele>
        <time>2019-08-01T14:24:28Z</time>
      </trkpt>
      <trkpt lat="42.51646" lon="2.01554">
        <ele>1917.6</ele>
        <time>2019-08-01T14:24:33Z</time>
      </trkpt>
      <trkpt lat="42.51648" lon="2.01557">
        <ele>1917.6</ele>
        <time>2019-08-01T14:24:38Z</time>
      </trkpt>
      <trkpt lat="42.5165" lon="2.01557">
        <ele>1916</ele>
        <time>2019-08-01T14:24:43Z</time>
      </trkpt>
      <trkpt lat="42.51652" lon="2.01558">
        <ele>1917.2</ele>
        <time>2019-08-01T14:24:48Z</time>
      </trkpt>
      <trkpt lat="42.51655" lon="2.01559">
        <ele>1914</ele>
        <time>2019-08-01T14:24:53Z</time>
      </trkpt>
      <trkpt lat="42.51659" lon="2.01562">
        <ele>1914.6</ele>
        <time>2019-08-01T14:24:58Z</time>
      </trkpt>
      <trkpt lat="42.51663" lon="2.01565">
        <ele>1912.8</ele>
        <time>2019-08-01T14:25:03Z</time>
      </trkpt>
      <trkpt lat="42.51669" lon="2.01567">
        <ele>1911</ele>
        <time>2019-08-01T14:25:08Z</time>
      </trkpt>
      <trkpt lat="42.51675" lon="2.0157">
        <ele>1909.6</ele>
        <time>2019-08-01T14:25:13Z</time>
      </trkpt>
      <trkpt lat="42.51679" lon="2.01573">
        <ele>1911.4</ele>
        <time>2019-08-01T14:25:18Z</time>
      </trkpt>
      <trkpt lat="42.51684" lon="2.01575">
        <ele>1911.4</ele>
        <time>2019-08-01T14:25:23Z</time>
      </trkpt>
      <trkpt lat="42.51687" lon="2.01577">
        <ele>1908.2</ele>
        <time>2019-08-01T14:25:28Z</time>
      </trkpt>
      <trkpt lat="42.51691" lon="2.0158">
        <ele>1905.2</ele>
        <time>2019-08-01T14:25:33Z</time>
      </trkpt>
      <trkpt lat="42.51694" lon="2.01583">
        <ele>1907.8</ele>
        <time>2019-08-01T14:25:38Z</time>
      </trkpt>
      <trkpt lat="42.51696" lon="2.01587">
        <ele>1906.2</ele>
        <time>2019-08-01T14:25:43Z</time>
      </trkpt>
      <trkpt lat="42.51699" lon="2.0159">
        <ele>1905.2</ele>
        <time>2019-08-01T14:25:48Z</time>
      </trkpt>
      <trkpt lat="42.51704" lon="2.01592">
        <ele>1907.6</ele>
        <time>2019-08-01T14:25:53Z</time>
      </trkpt>
      <trkpt lat="42.51709" lon="2.01594">
        <ele>1909.2</ele>
        <time>2019-08-01T14:25:58Z</time>
      </trkpt>
      <trkpt lat="42.51712" lon="2.01597">
        <ele>1907.4</ele>
        <time>2019-08-01T14:26:03Z</time>
      </trkpt>
      <trkpt lat="42.51717" lon="2.016">
        <ele>1907</ele>
        <time>2019-08-01T14:26:08Z</time>
      </trkpt>
      <trkpt lat="42.51722" lon="2.01601">
        <ele>1908.4</ele>
        <time>2019-08-01T14:26:13Z</time>
      </trkpt>
      <trkpt lat="42.51726" lon="2.016">
        <ele>1907.2</ele>
        <time>2019-08-01T14:26:18Z</time>
      </trkpt>
      <trkpt lat="42.5173" lon="2.01603">
        <ele>1905.8</ele>
        <time>2019-08-01T14:26:23Z</time>
      </trkpt>
      <trkpt lat="42.51735" lon="2.01606">
        <ele>1904.2</ele>
        <time>2019-08-01T14:26:28Z</time>
      </trkpt>
      <trkpt lat="42.51739" lon="2.01608">
        <ele>1904.8</ele>
        <time>2019-08-01T14:26:33Z</time>
      </trkpt>
      <trkpt lat="42.51744" lon="2.0161">
        <ele>1903.8</ele>
        <time>2019-08-01T14:26:38Z</time>
      </trkpt>
      <trkpt lat="42.51749" lon="2.01612">
        <ele>1904.2</ele>
        <time>2019-08-01T14:26:43Z</time>
      </trkpt>
      <trkpt lat="42.51754" lon="2.01613">
        <ele>1904.2</ele>
        <time>2019-08-01T14:26:48Z</time>
      </trkpt>
      <trkpt lat="42.51759" lon="2.01613">
        <ele>1905</ele>
        <time>2019-08-01T14:26:53Z</time>
      </trkpt>
      <trkpt lat="42.51765" lon="2.01612">
        <ele>1903.8</ele>
        <time>2019-08-01T14:26:58Z</time>
      </trkpt>
      <trkpt lat="42.51769" lon="2.01609">
        <ele>1907.8</ele>
        <time>2019-08-01T14:27:03Z</time>
      </trkpt>
      <trkpt lat="42.51772" lon="2.01606">
        <ele>1905.8</ele>
        <time>2019-08-01T14:27:08Z</time>
      </trkpt>
      <trkpt lat="42.51777" lon="2.01606">
        <ele>1906.8</ele>
        <time>2019-08-01T14:27:13Z</time>
      </trkpt>
      <trkpt lat="42.51782" lon="2.01608">
        <ele>1906.8</ele>
        <time>2019-08-01T14:27:18Z</time>
      </trkpt>
      <trkpt lat="42.51784" lon="2.01611">
        <ele>1907.6</ele>
        <time>2019-08-01T14:27:23Z</time>
      </trkpt>
      <trkpt lat="42.51788" lon="2.01614">
        <ele>1905.8</ele>
        <time>2019-08-01T14:27:28Z</time>
      </trkpt>
      <trkpt lat="42.51792" lon="2.01617">
        <ele>1907</ele>
        <time>2019-08-01T14:27:33Z</time>
      </trkpt>
      <trkpt lat="42.51796" lon="2.01622">
        <ele>1906.4</ele>
        <time>2019-08-01T14:27:38Z</time>
      </trkpt>
      <trkpt lat="42.518" lon="2.01628">
        <ele>1901.4</ele>
        <time>2019-08-01T14:27:43Z</time>
      </trkpt>
      <trkpt lat="42.51803" lon="2.01634">
        <ele>1900.8</ele>
        <time>2019-08-01T14:27:48Z</time>
      </trkpt>
      <trkpt lat="42.51805" lon="2.01642">
        <ele>1902.2</ele>
        <time>2019-08-01T14:27:53Z</time>
      </trkpt>
      <trkpt lat="42.51808" lon="2.01649">
        <ele>1901.4</ele>
        <time>2019-08-01T14:27:58Z</time>
      </trkpt>
      <trkpt lat="42.51809" lon="2.01656">
        <ele>1903.4</ele>
        <time>2019-08-01T14:28:03Z</time>
      </trkpt>
      <trkpt lat="42.5181" lon="2.01663">
        <ele>1899.4</ele>
        <time>2019-08-01T14:28:08Z</time>
      </trkpt>
      <trkpt lat="42.5181" lon="2.0167">
        <ele>1901</ele>
        <time>2019-08-01T14:28:13Z</time>
      </trkpt>
      <trkpt lat="42.5181" lon="2.01676">
        <ele>1900.8</ele>
        <time>2019-08-01T14:28:18Z</time>
      </trkpt>
      <trkpt lat="42.5181" lon="2.01682">
        <ele>1903.4</ele>
        <time>2019-08-01T14:28:23Z</time>
      </trkpt>
      <trkpt lat="42.5181" lon="2.01689">
        <ele>1900.8</ele>
        <time>2019-08-01T14:28:28Z</time>
      </trkpt>
      <trkpt lat="42.5181" lon="2.01696">
        <ele>1899.6</ele>
        <time>2019-08-01T14:28:33Z</time>
      </trkpt>
      <trkpt lat="42.51811" lon="2.01703">
        <ele>1902</ele>
        <time>2019-08-01T14:28:38Z</time>
      </trkpt>
      <trkpt lat="42.51811" lon="2.01705">
        <ele>1901.2</ele>
        <time>2019-08-01T14:28:43Z</time>
      </trkpt>
      <trkpt lat="42.51811" lon="2.01711">
        <ele>1900.2</ele>
        <time>2019-08-01T14:28:48Z</time>
      </trkpt>
      <trkpt lat="42.5181" lon="2.01717">
        <ele>1899.4</ele>
        <time>2019-08-01T14:28:53Z</time>
      </trkpt>
      <trkpt lat="42.51808" lon="2.01723">
        <ele>1899.4</ele>
        <time>2019-08-01T14:28:58Z</time>
      </trkpt>
      <trkpt lat="42.51808" lon="2.01729">
        <ele>1900</ele>
        <time>2019-08-01T14:29:03Z</time>
      </trkpt>
      <trkpt lat="42.51807" lon="2.01736">
        <ele>1901.2</ele>
        <time>2019-08-01T14:29:08Z</time>
      </trkpt>
      <trkpt lat="42.51806" lon="2.01742">
        <ele>1901.6</ele>
        <time>2019-08-01T14:29:13Z</time>
      </trkpt>
      <trkpt lat="42.51805" lon="2.01747">
        <ele>1899.2</ele>
        <time>2019-08-01T14:29:18Z</time>
      </trkpt>
      <trkpt lat="42.51804" lon="2.01753">
        <ele>1902</ele>
        <time>2019-08-01T14:29:23Z</time>
      </trkpt>
      <trkpt lat="42.51801" lon="2.01758">
        <ele>1901.8</ele>
        <time>2019-08-01T14:29:28Z</time>
      </trkpt>
      <trkpt lat="42.51799" lon="2.01763">
        <ele>1901.8</ele>
        <time>2019-08-01T14:29:33Z</time>
      </trkpt>
      <trkpt lat="42.51799" lon="2.01768">
        <ele>1904.2</ele>
        <time>2019-08-01T14:29:38Z</time>
      </trkpt>
      <trkpt lat="42.51798" lon="2.01773">
        <ele>1903.4</ele>
        <time>2019-08-01T14:29:43Z</time>
      </trkpt>
      <trkpt lat="42.51796" lon="2.01778">
        <ele>1901</ele>
        <time>2019-08-01T14:29:48Z</time>
      </trkpt>
      <trkpt lat="42.51795" lon="2.01784">
        <ele>1904.6</ele>
        <time>2019-08-01T14:29:53Z</time>
      </trkpt>
      <trkpt lat="42.51792" lon="2.01789">
        <ele>1904.8</ele>
        <time>2019-08-01T14:29:58Z</time>
      </trkpt>
      <trkpt lat="42.5179" lon="2.01795">
        <ele>1905.6</ele>
        <time>2019-08-01T14:30:03Z</time>
      </trkpt>
      <trkpt lat="42.51788" lon="2.01801">
        <ele>1905.6</ele>
        <time>2019-08-01T14:30:08Z</time>
      </trkpt>
      <trkpt lat="42.51787" lon="2.01807">
        <ele>1906</ele>
        <time>2019-08-01T14:30:13Z</time>
      </trkpt>
      <trkpt lat="42.51786" lon="2.01814">
        <ele>1906.4</ele>
        <time>2019-08-01T14:30:18Z</time>
      </trkpt>
      <trkpt lat="42.51785" lon="2.0182">
        <ele>1907</ele>
        <time>2019-08-01T14:30:23Z</time>
      </trkpt>
      <trkpt lat="42.51784" lon="2.01827">
        <ele>1906</ele>
        <time>2019-08-01T14:30:28Z</time>
      </trkpt>
      <trkpt lat="42.51782" lon="2.01833">
        <ele>1904.6</ele>
        <time>2019-08-01T14:30:33Z</time>
      </trkpt>
      <trkpt lat="42.51781" lon="2.01839">
        <ele>1905</ele>
        <time>2019-08-01T14:30:38Z</time>
      </trkpt>
      <trkpt lat="42.51779" lon="2.01846">
        <ele>1906.8</ele>
        <time>2019-08-01T14:30:43Z</time>
      </trkpt>
      <trkpt lat="42.51777" lon="2.01852">
        <ele>1907</ele>
        <time>2019-08-01T14:30:48Z</time>
      </trkpt>
      <trkpt lat="42.51775" lon="2.01858">
        <ele>1906.6</ele>
        <time>2019-08-01T14:30:53Z</time>
      </trkpt>
      <trkpt lat="42.51773" lon="2.01864">
        <ele>1906.8</ele>
        <time>2019-08-01T14:30:58Z</time>
      </trkpt>
      <trkpt lat="42.51771" lon="2.0187">
        <ele>1904.8</ele>
        <time>2019-08-01T14:31:03Z</time>
      </trkpt>
      <trkpt lat="42.51768" lon="2.01876">
        <ele>1902</ele>
        <time>2019-08-01T14:31:08Z</time>
      </trkpt>
      <trkpt lat="42.51766" lon="2.01881">
        <ele>1905</ele>
        <time>2019-08-01T14:31:13Z</time>
      </trkpt>
      <trkpt lat="42.51764" lon="2.01887">
        <ele>1902</ele>
        <time>2019-08-01T14:31:18Z</time>
      </trkpt>
      <trkpt lat="42.51762" lon="2.01893">
        <ele>1904.8</ele>
        <time>2019-08-01T14:31:23Z</time>
      </trkpt>
      <trkpt lat="42.5176" lon="2.01899">
        <ele>1903.2</ele>
        <time>2019-08-01T14:31:28Z</time>
      </trkpt>
      <trkpt lat="42.51758" lon="2.01906">
        <ele>1905</ele>
        <time>2019-08-01T14:31:33Z</time>
      </trkpt>
      <trkpt lat="42.51757" lon="2.01912">
        <ele>1904.8</ele>
        <time>2019-08-01T14:31:38Z</time>
      </trkpt>
      <trkpt lat="42.51755" lon="2.01918">
        <ele>1905</ele>
        <time>2019-08-01T14:31:43Z</time>
      </trkpt>
      <trkpt lat="42.51755" lon="2.01923">
        <ele>1904.6</ele>
        <time>2019-08-01T14:31:48Z</time>
      </trkpt>
      <trkpt lat="42.51754" lon="2.01928">
        <ele>1907</ele>
        <time>2019-08-01T14:31:53Z</time>
      </trkpt>
      <trkpt lat="42.51753" lon="2.01934">
        <ele>1906.6</ele>
        <time>2019-08-01T14:31:58Z</time>
      </trkpt>
      <trkpt lat="42.51752" lon="2.01941">
        <ele>1905.4</ele>
        <time>2019-08-01T14:32:03Z</time>
      </trkpt>
      <trkpt lat="42.51751" lon="2.01947">
        <ele>1908.2</ele>
        <time>2019-08-01T14:32:08Z</time>
      </trkpt>
      <trkpt lat="42.51751" lon="2.01952">
        <ele>1908.6</ele>
        <time>2019-08-01T14:32:13Z</time>
      </trkpt>
      <trkpt lat="42.51749" lon="2.01958">
        <ele>1908.2</ele>
        <time>2019-08-01T14:32:18Z</time>
      </trkpt>
      <trkpt lat="42.51749" lon="2.01964">
        <ele>1909.4</ele>
        <time>2019-08-01T14:32:23Z</time>
      </trkpt>
      <trkpt lat="42.51749" lon="2.0197">
        <ele>1910.4</ele>
        <time>2019-08-01T14:32:28Z</time>
      </trkpt>
      <trkpt lat="42.51747" lon="2.01975">
        <ele>1912</ele>
        <time>2019-08-01T14:32:33Z</time>
      </trkpt>
      <trkpt lat="42.51746" lon="2.01979">
        <ele>1911.6</ele>
        <time>2019-08-01T14:32:38Z</time>
      </trkpt>
      <trkpt lat="42.51745" lon="2.01984">
        <ele>1912</ele>
        <time>2019-08-01T14:32:43Z</time>
      </trkpt>
      <trkpt lat="42.51744" lon="2.01989">
        <ele>1913.2</ele>
        <time>2019-08-01T14:32:48Z</time>
      </trkpt>
      <trkpt lat="42.51742" lon="2.01994">
        <ele>1915</ele>
        <time>2019-08-01T14:32:53Z</time>
      </trkpt>
      <trkpt lat="42.5174" lon="2.01999">
        <ele>1912</ele>
        <time>2019-08-01T14:32:58Z</time>
      </trkpt>
      <trkpt lat="42.51738" lon="2.02003">
        <ele>1915</ele>
        <time>2019-08-01T14:33:03Z</time>
      </trkpt>
      <trkpt lat="42.51738" lon="2.02003">
        <ele>1915</ele>
        <time>2019-08-01T14:33:08Z</time>
      </trkpt>
      <trkpt lat="42.51737" lon="2.02007">
        <ele>1916.8</ele>
        <time>2019-08-01T14:33:13Z</time>
      </trkpt>
      <trkpt lat="42.51735" lon="2.02011">
        <ele>1916.2</ele>
        <time>2019-08-01T14:33:18Z</time>
      </trkpt>
      <trkpt lat="42.51732" lon="2.02017">
        <ele>1918.8</ele>
        <time>2019-08-01T14:33:23Z</time>
      </trkpt>
      <trkpt lat="42.51729" lon="2.02022">
        <ele>1917</ele>
        <time>2019-08-01T14:33:28Z</time>
      </trkpt>
      <trkpt lat="42.51726" lon="2.02028">
        <ele>1920.2</ele>
        <time>2019-08-01T14:33:33Z</time>
      </trkpt>
      <trkpt lat="42.51723" lon="2.02034">
        <ele>1921.2</ele>
        <time>2019-08-01T14:33:38Z</time>
      </trkpt>
      <trkpt lat="42.51722" lon="2.02038">
        <ele>1919.8</ele>
        <time>2019-08-01T14:33:43Z</time>
      </trkpt>
      <trkpt lat="42.51723" lon="2.02039">
        <ele>1919.8</ele>
        <time>2019-08-01T14:33:48Z</time>
      </trkpt>
      <trkpt lat="42.51723" lon="2.02041">
        <ele>1918.4</ele>
        <time>2019-08-01T14:34:43Z</time>
      </trkpt>
      <trkpt lat="42.51723" lon="2.02043">
        <ele>1918.4</ele>
        <time>2019-08-01T14:34:48Z</time>
      </trkpt>
      <trkpt lat="42.51723" lon="2.02043">
        <ele>1917.8</ele>
        <time>2019-08-01T14:35:13Z</time>
      </trkpt>
      <trkpt lat="42.51723" lon="2.02045">
        <ele>1918.6</ele>
        <time>2019-08-01T14:35:18Z</time>
      </trkpt>
      <trkpt lat="42.51721" lon="2.02047">
        <ele>1918.8</ele>
        <time>2019-08-01T14:35:23Z</time>
      </trkpt>
      <trkpt lat="42.5172" lon="2.02052">
        <ele>1916.4</ele>
        <time>2019-08-01T14:35:28Z</time>
      </trkpt>
      <trkpt lat="42.51717" lon="2.02058">
        <ele>1921.4</ele>
        <time>2019-08-01T14:35:33Z</time>
      </trkpt>
      <trkpt lat="42.51716" lon="2.02064">
        <ele>1918.4</ele>
        <time>2019-08-01T14:35:38Z</time>
      </trkpt>
      <trkpt lat="42.51715" lon="2.02069">
        <ele>1917</ele>
        <time>2019-08-01T14:35:43Z</time>
      </trkpt>
      <trkpt lat="42.51713" lon="2.02075">
        <ele>1919.4</ele>
        <time>2019-08-01T14:35:48Z</time>
      </trkpt>
      <trkpt lat="42.51711" lon="2.02082">
        <ele>1919.4</ele>
        <time>2019-08-01T14:35:53Z</time>
      </trkpt>
      <trkpt lat="42.51709" lon="2.0209">
        <ele>1917.4</ele>
        <time>2019-08-01T14:35:58Z</time>
      </trkpt>
      <trkpt lat="42.51707" lon="2.02097">
        <ele>1918</ele>
        <time>2019-08-01T14:36:03Z</time>
      </trkpt>
      <trkpt lat="42.51705" lon="2.02104">
        <ele>1919.6</ele>
        <time>2019-08-01T14:36:08Z</time>
      </trkpt>
      <trkpt lat="42.51703" lon="2.02109">
        <ele>1919.6</ele>
        <time>2019-08-01T14:36:13Z</time>
      </trkpt>
      <trkpt lat="42.51701" lon="2.02115">
        <ele>1921.2</ele>
        <time>2019-08-01T14:36:18Z</time>
      </trkpt>
      <trkpt lat="42.51699" lon="2.02119">
        <ele>1917.8</ele>
        <time>2019-08-01T14:36:23Z</time>
      </trkpt>
      <trkpt lat="42.51698" lon="2.02125">
        <ele>1921.2</ele>
        <time>2019-08-01T14:36:28Z</time>
      </trkpt>
      <trkpt lat="42.51696" lon="2.02132">
        <ele>1920.4</ele>
        <time>2019-08-01T14:36:33Z</time>
      </trkpt>
      <trkpt lat="42.51695" lon="2.02138">
        <ele>1921.4</ele>
        <time>2019-08-01T14:36:38Z</time>
      </trkpt>
      <trkpt lat="42.51693" lon="2.02144">
        <ele>1921.4</ele>
        <time>2019-08-01T14:36:43Z</time>
      </trkpt>
      <trkpt lat="42.51691" lon="2.02149">
        <ele>1921.6</ele>
        <time>2019-08-01T14:36:48Z</time>
      </trkpt>
      <trkpt lat="42.5169" lon="2.02155">
        <ele>1920.4</ele>
        <time>2019-08-01T14:36:53Z</time>
      </trkpt>
      <trkpt lat="42.51689" lon="2.0216">
        <ele>1923.4</ele>
        <time>2019-08-01T14:36:58Z</time>
      </trkpt>
      <trkpt lat="42.51688" lon="2.02166">
        <ele>1921.2</ele>
        <time>2019-08-01T14:37:03Z</time>
      </trkpt>
      <trkpt lat="42.51687" lon="2.02173">
        <ele>1923</ele>
        <time>2019-08-01T14:37:08Z</time>
      </trkpt>
      <trkpt lat="42.51685" lon="2.02179">
        <ele>1922.6</ele>
        <time>2019-08-01T14:37:13Z</time>
      </trkpt>
      <trkpt lat="42.51686" lon="2.02186">
        <ele>1922.4</ele>
        <time>2019-08-01T14:37:18Z</time>
      </trkpt>
      <trkpt lat="42.51684" lon="2.02192">
        <ele>1922</ele>
        <time>2019-08-01T14:37:23Z</time>
      </trkpt>
      <trkpt lat="42.51682" lon="2.02198">
        <ele>1921</ele>
        <time>2019-08-01T14:37:28Z</time>
      </trkpt>
      <trkpt lat="42.51682" lon="2.02205">
        <ele>1922.6</ele>
        <time>2019-08-01T14:37:33Z</time>
      </trkpt>
      <trkpt lat="42.51681" lon="2.02211">
        <ele>1923.8</ele>
        <time>2019-08-01T14:37:38Z</time>
      </trkpt>
      <trkpt lat="42.51681" lon="2.02217">
        <ele>1924.2</ele>
        <time>2019-08-01T14:37:43Z</time>
      </trkpt>
      <trkpt lat="42.51682" lon="2.02224">
        <ele>1924.8</ele>
        <time>2019-08-01T14:37:48Z</time>
      </trkpt>
      <trkpt lat="42.51682" lon="2.02231">
        <ele>1923.4</ele>
        <time>2019-08-01T14:37:53Z</time>
      </trkpt>
      <trkpt lat="42.51682" lon="2.02237">
        <ele>1924.8</ele>
        <time>2019-08-01T14:37:58Z</time>
      </trkpt>
      <trkpt lat="42.51679" lon="2.02243">
        <ele>1925</ele>
        <time>2019-08-01T14:38:03Z</time>
      </trkpt>
      <trkpt lat="42.51678" lon="2.02249">
        <ele>1923.2</ele>
        <time>2019-08-01T14:38:08Z</time>
      </trkpt>
      <trkpt lat="42.51678" lon="2.02255">
        <ele>1923.6</ele>
        <time>2019-08-01T14:38:13Z</time>
      </trkpt>
      <trkpt lat="42.51676" lon="2.0226">
        <ele>1926.8</ele>
        <time>2019-08-01T14:38:18Z</time>
      </trkpt>
      <trkpt lat="42.51673" lon="2.02265">
        <ele>1924.2</ele>
        <time>2019-08-01T14:38:23Z</time>
      </trkpt>
      <trkpt lat="42.51673" lon="2.0227">
        <ele>1925</ele>
        <time>2019-08-01T14:38:28Z</time>
      </trkpt>
      <trkpt lat="42.51673" lon="2.02275">
        <ele>1926</ele>
        <time>2019-08-01T14:38:33Z</time>
      </trkpt>
      <trkpt lat="42.51673" lon="2.02281">
        <ele>1924.8</ele>
        <time>2019-08-01T14:38:38Z</time>
      </trkpt>
      <trkpt lat="42.51672" lon="2.02286">
        <ele>1925.4</ele>
        <time>2019-08-01T14:38:43Z</time>
      </trkpt>
      <trkpt lat="42.5167" lon="2.02292">
        <ele>1924.6</ele>
        <time>2019-08-01T14:38:48Z</time>
      </trkpt>
      <trkpt lat="42.5167" lon="2.02298">
        <ele>1925.2</ele>
        <time>2019-08-01T14:38:53Z</time>
      </trkpt>
      <trkpt lat="42.51669" lon="2.02304">
        <ele>1928.2</ele>
        <time>2019-08-01T14:38:58Z</time>
      </trkpt>
      <trkpt lat="42.51668" lon="2.0231">
        <ele>1925.4</ele>
        <time>2019-08-01T14:39:03Z</time>
      </trkpt>
      <trkpt lat="42.51668" lon="2.02315">
        <ele>1928.4</ele>
        <time>2019-08-01T14:39:08Z</time>
      </trkpt>
      <trkpt lat="42.51667" lon="2.02321">
        <ele>1927</ele>
        <time>2019-08-01T14:39:13Z</time>
      </trkpt>
      <trkpt lat="42.51664" lon="2.02325">
        <ele>1926.2</ele>
        <time>2019-08-01T14:39:18Z</time>
      </trkpt>
      <trkpt lat="42.51661" lon="2.0233">
        <ele>1926.2</ele>
        <time>2019-08-01T14:39:23Z</time>
      </trkpt>
      <trkpt lat="42.5166" lon="2.02331">
        <ele>1927.6</ele>
        <time>2019-08-01T14:39:28Z</time>
      </trkpt>
      <trkpt lat="42.51659" lon="2.02335">
        <ele>1926.4</ele>
        <time>2019-08-01T14:39:33Z</time>
      </trkpt>
      <trkpt lat="42.51656" lon="2.02341">
        <ele>1929.2</ele>
        <time>2019-08-01T14:39:38Z</time>
      </trkpt>
      <trkpt lat="42.51654" lon="2.02347">
        <ele>1928.2</ele>
        <time>2019-08-01T14:39:43Z</time>
      </trkpt>
      <trkpt lat="42.51653" lon="2.02354">
        <ele>1928.4</ele>
        <time>2019-08-01T14:39:48Z</time>
      </trkpt>
      <trkpt lat="42.51653" lon="2.02358">
        <ele>1927.6</ele>
        <time>2019-08-01T14:39:53Z</time>
      </trkpt>
      <trkpt lat="42.51653" lon="2.02363">
        <ele>1927.4</ele>
        <time>2019-08-01T14:39:58Z</time>
      </trkpt>
      <trkpt lat="42.51652" lon="2.02369">
        <ele>1931.6</ele>
        <time>2019-08-01T14:40:03Z</time>
      </trkpt>
      <trkpt lat="42.51652" lon="2.02373">
        <ele>1933.4</ele>
        <time>2019-08-01T14:40:08Z</time>
      </trkpt>
      <trkpt lat="42.51651" lon="2.02378">
        <ele>1934.2</ele>
        <time>2019-08-01T14:40:13Z</time>
      </trkpt>
      <trkpt lat="42.51649" lon="2.02382">
        <ele>1936</ele>
        <time>2019-08-01T14:40:18Z</time>
      </trkpt>
      <trkpt lat="42.51648" lon="2.02387">
        <ele>1934</ele>
        <time>2019-08-01T14:40:23Z</time>
      </trkpt>
      <trkpt lat="42.51648" lon="2.02391">
        <ele>1934.8</ele>
        <time>2019-08-01T14:40:28Z</time>
      </trkpt>
      <trkpt lat="42.51647" lon="2.02396">
        <ele>1937.8</ele>
        <time>2019-08-01T14:40:33Z</time>
      </trkpt>
      <trkpt lat="42.51647" lon="2.02401">
        <ele>1937</ele>
        <time>2019-08-01T14:40:38Z</time>
      </trkpt>
      <trkpt lat="42.51645" lon="2.02405">
        <ele>1937</ele>
        <time>2019-08-01T14:40:43Z</time>
      </trkpt>
      <trkpt lat="42.51645" lon="2.02406">
        <ele>1936.2</ele>
        <time>2019-08-01T14:40:48Z</time>
      </trkpt>
      <trkpt lat="42.51644" lon="2.02406">
        <ele>1935</ele>
        <time>2019-08-01T14:40:58Z</time>
      </trkpt>
      <trkpt lat="42.51644" lon="2.02407">
        <ele>1934.6</ele>
        <time>2019-08-01T14:41:03Z</time>
      </trkpt>
      <trkpt lat="42.51643" lon="2.02411">
        <ele>1935.6</ele>
        <time>2019-08-01T14:41:08Z</time>
      </trkpt>
      <trkpt lat="42.51643" lon="2.02417">
        <ele>1934.4</ele>
        <time>2019-08-01T14:41:13Z</time>
      </trkpt>
      <trkpt lat="42.51642" lon="2.02421">
        <ele>1933.6</ele>
        <time>2019-08-01T14:41:18Z</time>
      </trkpt>
      <trkpt lat="42.5164" lon="2.02426">
        <ele>1933.6</ele>
        <time>2019-08-01T14:41:23Z</time>
      </trkpt>
      <trkpt lat="42.5164" lon="2.02427">
        <ele>1933</ele>
        <time>2019-08-01T14:41:43Z</time>
      </trkpt>
      <trkpt lat="42.51641" lon="2.02428">
        <ele>1931</ele>
        <time>2019-08-01T14:41:48Z</time>
      </trkpt>
      <trkpt lat="42.5164" lon="2.02433">
        <ele>1933.6</ele>
        <time>2019-08-01T14:41:53Z</time>
      </trkpt>
      <trkpt lat="42.5164" lon="2.02436">
        <ele>1931.4</ele>
        <time>2019-08-01T14:41:58Z</time>
      </trkpt>
      <trkpt lat="42.51639" lon="2.02442">
        <ele>1931.6</ele>
        <time>2019-08-01T14:42:03Z</time>
      </trkpt>
      <trkpt lat="42.51637" lon="2.02448">
        <ele>1934.8</ele>
        <time>2019-08-01T14:42:08Z</time>
      </trkpt>
      <trkpt lat="42.51636" lon="2.02451">
        <ele>1934.4</ele>
        <time>2019-08-01T14:42:13Z</time>
      </trkpt>
      <trkpt lat="42.51636" lon="2.02452">
        <ele>1934.6</ele>
        <time>2019-08-01T14:42:18Z</time>
      </trkpt>
      <trkpt lat="42.51633" lon="2.02458">
        <ele>1936.4</ele>
        <time>2019-08-01T14:42:23Z</time>
      </trkpt>
      <trkpt lat="42.51632" lon="2.02463">
        <ele>1934.8</ele>
        <time>2019-08-01T14:42:28Z</time>
      </trkpt>
      <trkpt lat="42.51631" lon="2.02468">
        <ele>1934.8</ele>
        <time>2019-08-01T14:42:33Z</time>
      </trkpt>
      <trkpt lat="42.51632" lon="2.02473">
        <ele>1933</ele>
        <time>2019-08-01T14:42:38Z</time>
      </trkpt>
      <trkpt lat="42.51633" lon="2.02476">
        <ele>1933.8</ele>
        <time>2019-08-01T14:42:43Z</time>
      </trkpt>
      <trkpt lat="42.51633" lon="2.02481">
        <ele>1933.2</ele>
        <time>2019-08-01T14:42:48Z</time>
      </trkpt>
      <trkpt lat="42.51631" lon="2.02486">
        <ele>1933.6</ele>
        <time>2019-08-01T14:42:53Z</time>
      </trkpt>
      <trkpt lat="42.51629" lon="2.02491">
        <ele>1934</ele>
        <time>2019-08-01T14:42:58Z</time>
      </trkpt>
      <trkpt lat="42.51627" lon="2.02497">
        <ele>1933</ele>
        <time>2019-08-01T14:43:03Z</time>
      </trkpt>
      <trkpt lat="42.51625" lon="2.02502">
        <ele>1933</ele>
        <time>2019-08-01T14:43:08Z</time>
      </trkpt>
      <trkpt lat="42.51624" lon="2.02508">
        <ele>1934.2</ele>
        <time>2019-08-01T14:43:13Z</time>
      </trkpt>
      <trkpt lat="42.51622" lon="2.02514">
        <ele>1934</ele>
        <time>2019-08-01T14:43:18Z</time>
      </trkpt>
      <trkpt lat="42.5162" lon="2.02519">
        <ele>1936.4</ele>
        <time>2019-08-01T14:43:23Z</time>
      </trkpt>
      <trkpt lat="42.51618" lon="2.02524">
        <ele>1935.2</ele>
        <time>2019-08-01T14:43:28Z</time>
      </trkpt>
      <trkpt lat="42.51616" lon="2.02529">
        <ele>1936</ele>
        <time>2019-08-01T14:43:33Z</time>
      </trkpt>
      <trkpt lat="42.51614" lon="2.02534">
        <ele>1934.8</ele>
        <time>2019-08-01T14:43:38Z</time>
      </trkpt>
      <trkpt lat="42.51612" lon="2.02538">
        <ele>1935.2</ele>
        <time>2019-08-01T14:43:43Z</time>
      </trkpt>
      <trkpt lat="42.51609" lon="2.02543">
        <ele>1936</ele>
        <time>2019-08-01T14:43:48Z</time>
      </trkpt>
      <trkpt lat="42.51608" lon="2.02548">
        <ele>1936.8</ele>
        <time>2019-08-01T14:43:53Z</time>
      </trkpt>
      <trkpt lat="42.51606" lon="2.02553">
        <ele>1938.8</ele>
        <time>2019-08-01T14:43:58Z</time>
      </trkpt>
      <trkpt lat="42.51604" lon="2.02558">
        <ele>1935.6</ele>
        <time>2019-08-01T14:44:03Z</time>
      </trkpt>
      <trkpt lat="42.51601" lon="2.02562">
        <ele>1936.6</ele>
        <time>2019-08-01T14:44:08Z</time>
      </trkpt>
      <trkpt lat="42.51599" lon="2.02567">
        <ele>1935.6</ele>
        <time>2019-08-01T14:44:13Z</time>
      </trkpt>
      <trkpt lat="42.51596" lon="2.02573">
        <ele>1938.4</ele>
        <time>2019-08-01T14:44:18Z</time>
      </trkpt>
      <trkpt lat="42.51594" lon="2.02578">
        <ele>1938.4</ele>
        <time>2019-08-01T14:44:23Z</time>
      </trkpt>
      <trkpt lat="42.51591" lon="2.02582">
        <ele>1938.4</ele>
        <time>2019-08-01T14:44:28Z</time>
      </trkpt>
      <trkpt lat="42.51588" lon="2.02587">
        <ele>1939.2</ele>
        <time>2019-08-01T14:44:33Z</time>
      </trkpt>
      <trkpt lat="42.51585" lon="2.02592">
        <ele>1937.8</ele>
        <time>2019-08-01T14:44:38Z</time>
      </trkpt>
      <trkpt lat="42.51583" lon="2.02597">
        <ele>1940.8</ele>
        <time>2019-08-01T14:44:43Z</time>
      </trkpt>
      <trkpt lat="42.5158" lon="2.02602">
        <ele>1937.4</ele>
        <time>2019-08-01T14:44:48Z</time>
      </trkpt>
      <trkpt lat="42.51578" lon="2.02606">
        <ele>1936.4</ele>
        <time>2019-08-01T14:44:53Z</time>
      </trkpt>
      <trkpt lat="42.51576" lon="2.02608">
        <ele>1937.6</ele>
        <time>2019-08-01T14:44:58Z</time>
      </trkpt>
      <trkpt lat="42.51573" lon="2.02614">
        <ele>1936.8</ele>
        <time>2019-08-01T14:45:03Z</time>
      </trkpt>
      <trkpt lat="42.51571" lon="2.02621">
        <ele>1935.6</ele>
        <time>2019-08-01T14:45:08Z</time>
      </trkpt>
      <trkpt lat="42.51569" lon="2.02627">
        <ele>1935.4</ele>
        <time>2019-08-01T14:45:13Z</time>
      </trkpt>
      <trkpt lat="42.51568" lon="2.02634">
        <ele>1936.4</ele>
        <time>2019-08-01T14:45:18Z</time>
      </trkpt>
      <trkpt lat="42.51568" lon="2.02641">
        <ele>1937.2</ele>
        <time>2019-08-01T14:45:23Z</time>
      </trkpt>
      <trkpt lat="42.51569" lon="2.02647">
        <ele>1938.6</ele>
        <time>2019-08-01T14:45:28Z</time>
      </trkpt>
      <trkpt lat="42.51571" lon="2.02653">
        <ele>1938.6</ele>
        <time>2019-08-01T14:45:33Z</time>
      </trkpt>
      <trkpt lat="42.51574" lon="2.02658">
        <ele>1938.4</ele>
        <time>2019-08-01T14:45:38Z</time>
      </trkpt>
      <trkpt lat="42.51576" lon="2.02663">
        <ele>1936.8</ele>
        <time>2019-08-01T14:45:43Z</time>
      </trkpt>
      <trkpt lat="42.51579" lon="2.02668">
        <ele>1939.4</ele>
        <time>2019-08-01T14:45:48Z</time>
      </trkpt>
      <trkpt lat="42.51583" lon="2.02672">
        <ele>1937.2</ele>
        <time>2019-08-01T14:45:53Z</time>
      </trkpt>
      <trkpt lat="42.51586" lon="2.02677">
        <ele>1937.2</ele>
        <time>2019-08-01T14:45:58Z</time>
      </trkpt>
      <trkpt lat="42.51588" lon="2.02682">
        <ele>1940.2</ele>
        <time>2019-08-01T14:46:03Z</time>
      </trkpt>
      <trkpt lat="42.5159" lon="2.02687">
        <ele>1937.4</ele>
        <time>2019-08-01T14:46:08Z</time>
      </trkpt>
      <trkpt lat="42.51592" lon="2.02693">
        <ele>1937.2</ele>
        <time>2019-08-01T14:46:13Z</time>
      </trkpt>
      <trkpt lat="42.51593" lon="2.02699">
        <ele>1935.4</ele>
        <time>2019-08-01T14:46:18Z</time>
      </trkpt>
      <trkpt lat="42.51594" lon="2.02705">
        <ele>1935.8</ele>
        <time>2019-08-01T14:46:23Z</time>
      </trkpt>
      <trkpt lat="42.51595" lon="2.02711">
        <ele>1937.2</ele>
        <time>2019-08-01T14:46:28Z</time>
      </trkpt>
      <trkpt lat="42.51596" lon="2.02715">
        <ele>1936.6</ele>
        <time>2019-08-01T14:46:33Z</time>
      </trkpt>
      <trkpt lat="42.51596" lon="2.02715">
        <ele>1936</ele>
        <time>2019-08-01T14:46:48Z</time>
      </trkpt>
      <trkpt lat="42.51597" lon="2.02719">
        <ele>1934.4</ele>
        <time>2019-08-01T14:46:53Z</time>
      </trkpt>
      <trkpt lat="42.51598" lon="2.02726">
        <ele>1938</ele>
        <time>2019-08-01T14:46:58Z</time>
      </trkpt>
      <trkpt lat="42.51599" lon="2.02733">
        <ele>1935.4</ele>
        <time>2019-08-01T14:47:03Z</time>
      </trkpt>
      <trkpt lat="42.516" lon="2.02739">
        <ele>1936.6</ele>
        <time>2019-08-01T14:47:08Z</time>
      </trkpt>
      <trkpt lat="42.51602" lon="2.02745">
        <ele>1935.4</ele>
        <time>2019-08-01T14:47:13Z</time>
      </trkpt>
      <trkpt lat="42.51603" lon="2.0275">
        <ele>1937.8</ele>
        <time>2019-08-01T14:47:18Z</time>
      </trkpt>
      <trkpt lat="42.51603" lon="2.02755">
        <ele>1936.8</ele>
        <time>2019-08-01T14:47:23Z</time>
      </trkpt>
      <trkpt lat="42.51604" lon="2.02762">
        <ele>1937.6</ele>
        <time>2019-08-01T14:47:28Z</time>
      </trkpt>
      <trkpt lat="42.51607" lon="2.0277">
        <ele>1937.2</ele>
        <time>2019-08-01T14:47:34Z</time>
      </trkpt>
      <trkpt lat="42.51609" lon="2.02776">
        <ele>1937.4</ele>
        <time>2019-08-01T14:47:39Z</time>
      </trkpt>
      <trkpt lat="42.51613" lon="2.02781">
        <ele>1937</ele>
        <time>2019-08-01T14:47:44Z</time>
      </trkpt>
      <trkpt lat="42.51616" lon="2.02787">
        <ele>1938.2</ele>
        <time>2019-08-01T14:47:49Z</time>
      </trkpt>
      <trkpt lat="42.51619" lon="2.02793">
        <ele>1940.2</ele>
        <time>2019-08-01T14:47:54Z</time>
      </trkpt>
      <trkpt lat="42.51621" lon="2.02799">
        <ele>1939.8</ele>
        <time>2019-08-01T14:47:59Z</time>
      </trkpt>
      <trkpt lat="42.51625" lon="2.02804">
        <ele>1941.6</ele>
        <time>2019-08-01T14:48:04Z</time>
      </trkpt>
      <trkpt lat="42.51627" lon="2.02811">
        <ele>1940.8</ele>
        <time>2019-08-01T14:48:09Z</time>
      </trkpt>
      <trkpt lat="42.51628" lon="2.02817">
        <ele>1939.4</ele>
        <time>2019-08-01T14:48:14Z</time>
      </trkpt>
      <trkpt lat="42.51631" lon="2.02823">
        <ele>1940.8</ele>
        <time>2019-08-01T14:48:19Z</time>
      </trkpt>
      <trkpt lat="42.51633" lon="2.02829">
        <ele>1939.8</ele>
        <time>2019-08-01T14:48:24Z</time>
      </trkpt>
      <trkpt lat="42.51635" lon="2.02834">
        <ele>1939</ele>
        <time>2019-08-01T14:48:29Z</time>
      </trkpt>
      <trkpt lat="42.51637" lon="2.0284">
        <ele>1942.2</ele>
        <time>2019-08-01T14:48:34Z</time>
      </trkpt>
      <trkpt lat="42.51638" lon="2.02845">
        <ele>1941.6</ele>
        <time>2019-08-01T14:48:39Z</time>
      </trkpt>
      <trkpt lat="42.5164" lon="2.0285">
        <ele>1940.8</ele>
        <time>2019-08-01T14:48:44Z</time>
      </trkpt>
      <trkpt lat="42.51643" lon="2.02856">
        <ele>1941.2</ele>
        <time>2019-08-01T14:48:49Z</time>
      </trkpt>
      <trkpt lat="42.51649" lon="2.0286">
        <ele>1939.6</ele>
        <time>2019-08-01T14:48:54Z</time>
      </trkpt>
      <trkpt lat="42.51653" lon="2.02865">
        <ele>1940</ele>
        <time>2019-08-01T14:48:59Z</time>
      </trkpt>
      <trkpt lat="42.51656" lon="2.02869">
        <ele>1939.2</ele>
        <time>2019-08-01T14:49:04Z</time>
      </trkpt>
      <trkpt lat="42.5166" lon="2.02873">
        <ele>1938.8</ele>
        <time>2019-08-01T14:49:09Z</time>
      </trkpt>
      <trkpt lat="42.51665" lon="2.02876">
        <ele>1940.6</ele>
        <time>2019-08-01T14:49:14Z</time>
      </trkpt>
      <trkpt lat="42.51669" lon="2.02878">
        <ele>1939.2</ele>
        <time>2019-08-01T14:49:19Z</time>
      </trkpt>
      <trkpt lat="42.51674" lon="2.02879">
        <ele>1937.8</ele>
        <time>2019-08-01T14:49:24Z</time>
      </trkpt>
      <trkpt lat="42.51679" lon="2.0288">
        <ele>1938.8</ele>
        <time>2019-08-01T14:49:29Z</time>
      </trkpt>
      <trkpt lat="42.51684" lon="2.02882">
        <ele>1937.2</ele>
        <time>2019-08-01T14:49:34Z</time>
      </trkpt>
      <trkpt lat="42.51689" lon="2.02885">
        <ele>1937.4</ele>
        <time>2019-08-01T14:49:39Z</time>
      </trkpt>
      <trkpt lat="42.51694" lon="2.02886">
        <ele>1937</ele>
        <time>2019-08-01T14:49:44Z</time>
      </trkpt>
      <trkpt lat="42.51698" lon="2.02889">
        <ele>1935.6</ele>
        <time>2019-08-01T14:49:49Z</time>
      </trkpt>
      <trkpt lat="42.51703" lon="2.02892">
        <ele>1935.8</ele>
        <time>2019-08-01T14:49:54Z</time>
      </trkpt>
      <trkpt lat="42.51708" lon="2.02894">
        <ele>1934.8</ele>
        <time>2019-08-01T14:49:59Z</time>
      </trkpt>
      <trkpt lat="42.51713" lon="2.02897">
        <ele>1932</ele>
        <time>2019-08-01T14:50:04Z</time>
      </trkpt>
      <trkpt lat="42.51718" lon="2.029">
        <ele>1933.6</ele>
        <time>2019-08-01T14:50:09Z</time>
      </trkpt>
      <trkpt lat="42.51722" lon="2.02903">
        <ele>1931.8</ele>
        <time>2019-08-01T14:50:14Z</time>
      </trkpt>
      <trkpt lat="42.51725" lon="2.02907">
        <ele>1934.2</ele>
        <time>2019-08-01T14:50:19Z</time>
      </trkpt>
      <trkpt lat="42.51729" lon="2.02912">
        <ele>1931</ele>
        <time>2019-08-01T14:50:24Z</time>
      </trkpt>
      <trkpt lat="42.51733" lon="2.02916">
        <ele>1931.8</ele>
        <time>2019-08-01T14:50:29Z</time>
      </trkpt>
      <trkpt lat="42.51737" lon="2.0292">
        <ele>1930</ele>
        <time>2019-08-01T14:50:34Z</time>
      </trkpt>
      <trkpt lat="42.51741" lon="2.02923">
        <ele>1931.6</ele>
        <time>2019-08-01T14:50:39Z</time>
      </trkpt>
      <trkpt lat="42.51745" lon="2.02927">
        <ele>1931.8</ele>
        <time>2019-08-01T14:50:44Z</time>
      </trkpt>
      <trkpt lat="42.51748" lon="2.02932">
        <ele>1931.6</ele>
        <time>2019-08-01T14:50:49Z</time>
      </trkpt>
      <trkpt lat="42.51749" lon="2.02933">
        <ele>1932.2</ele>
        <time>2019-08-01T14:50:54Z</time>
      </trkpt>
      <trkpt lat="42.51751" lon="2.02936">
        <ele>1931.2</ele>
        <time>2019-08-01T14:50:59Z</time>
      </trkpt>
      <trkpt lat="42.51755" lon="2.0294">
        <ele>1931.6</ele>
        <time>2019-08-01T14:51:04Z</time>
      </trkpt>
      <trkpt lat="42.51758" lon="2.02944">
        <ele>1930.8</ele>
        <time>2019-08-01T14:51:09Z</time>
      </trkpt>
      <trkpt lat="42.51761" lon="2.02948">
        <ele>1932.6</ele>
        <time>2019-08-01T14:51:14Z</time>
      </trkpt>
      <trkpt lat="42.51762" lon="2.02951">
        <ele>1931.8</ele>
        <time>2019-08-01T14:51:19Z</time>
      </trkpt>
      <trkpt lat="42.51763" lon="2.02957">
        <ele>1932.2</ele>
        <time>2019-08-01T14:51:24Z</time>
      </trkpt>
      <trkpt lat="42.51764" lon="2.02963">
        <ele>1931</ele>
        <time>2019-08-01T14:51:29Z</time>
      </trkpt>
      <trkpt lat="42.51765" lon="2.02969">
        <ele>1933.2</ele>
        <time>2019-08-01T14:51:34Z</time>
      </trkpt>
      <trkpt lat="42.51767" lon="2.02974">
        <ele>1930.6</ele>
        <time>2019-08-01T14:51:39Z</time>
      </trkpt>
      <trkpt lat="42.51768" lon="2.02979">
        <ele>1933.6</ele>
        <time>2019-08-01T14:51:44Z</time>
      </trkpt>
      <trkpt lat="42.51769" lon="2.02985">
        <ele>1933.2</ele>
        <time>2019-08-01T14:51:49Z</time>
      </trkpt>
      <trkpt lat="42.5177" lon="2.0299">
        <ele>1933.4</ele>
        <time>2019-08-01T14:51:54Z</time>
      </trkpt>
      <trkpt lat="42.51772" lon="2.02996">
        <ele>1934.4</ele>
        <time>2019-08-01T14:51:59Z</time>
      </trkpt>
      <trkpt lat="42.51774" lon="2.03001">
        <ele>1935.2</ele>
        <time>2019-08-01T14:52:04Z</time>
      </trkpt>
      <trkpt lat="42.51776" lon="2.03006">
        <ele>1939</ele>
        <time>2019-08-01T14:52:09Z</time>
      </trkpt>
      <trkpt lat="42.51779" lon="2.03011">
        <ele>1936.8</ele>
        <time>2019-08-01T14:52:14Z</time>
      </trkpt>
      <trkpt lat="42.51781" lon="2.03016">
        <ele>1935.8</ele>
        <time>2019-08-01T14:52:19Z</time>
      </trkpt>
      <trkpt lat="42.51784" lon="2.03021">
        <ele>1937.2</ele>
        <time>2019-08-01T14:52:24Z</time>
      </trkpt>
      <trkpt lat="42.51786" lon="2.03026">
        <ele>1937.8</ele>
        <time>2019-08-01T14:52:29Z</time>
      </trkpt>
      <trkpt lat="42.51789" lon="2.03031">
        <ele>1937.4</ele>
        <time>2019-08-01T14:52:34Z</time>
      </trkpt>
      <trkpt lat="42.51791" lon="2.03036">
        <ele>1939.6</ele>
        <time>2019-08-01T14:52:39Z</time>
      </trkpt>
      <trkpt lat="42.51792" lon="2.03041">
        <ele>1942.2</ele>
        <time>2019-08-01T14:52:44Z</time>
      </trkpt>
      <trkpt lat="42.51794" lon="2.03044">
        <ele>1941.2</ele>
        <time>2019-08-01T14:52:49Z</time>
      </trkpt>
      <trkpt lat="42.51797" lon="2.03048">
        <ele>1940.2</ele>
        <time>2019-08-01T14:52:54Z</time>
      </trkpt>
      <trkpt lat="42.518" lon="2.0305">
        <ele>1938.2</ele>
        <time>2019-08-01T14:52:59Z</time>
      </trkpt>
      <trkpt lat="42.51805" lon="2.0305">
        <ele>1938.8</ele>
        <time>2019-08-01T14:53:04Z</time>
      </trkpt>
      <trkpt lat="42.5181" lon="2.03054">
        <ele>1939</ele>
        <time>2019-08-01T14:53:09Z</time>
      </trkpt>
      <trkpt lat="42.51815" lon="2.03057">
        <ele>1939.8</ele>
        <time>2019-08-01T14:53:14Z</time>
      </trkpt>
      <trkpt lat="42.51821" lon="2.03057">
        <ele>1939.6</ele>
        <time>2019-08-01T14:53:19Z</time>
      </trkpt>
      <trkpt lat="42.51828" lon="2.03059">
        <ele>1939.2</ele>
        <time>2019-08-01T14:53:24Z</time>
      </trkpt>
      <trkpt lat="42.51833" lon="2.03063">
        <ele>1938.4</ele>
        <time>2019-08-01T14:53:29Z</time>
      </trkpt>
      <trkpt lat="42.51838" lon="2.03066">
        <ele>1938</ele>
        <time>2019-08-01T14:53:34Z</time>
      </trkpt>
      <trkpt lat="42.51842" lon="2.0307">
        <ele>1939.4</ele>
        <time>2019-08-01T14:53:39Z</time>
      </trkpt>
      <trkpt lat="42.51847" lon="2.03074">
        <ele>1935.4</ele>
        <time>2019-08-01T14:53:44Z</time>
      </trkpt>
      <trkpt lat="42.51851" lon="2.03078">
        <ele>1939.8</ele>
        <time>2019-08-01T14:53:49Z</time>
      </trkpt>
      <trkpt lat="42.51855" lon="2.03083">
        <ele>1938.4</ele>
        <time>2019-08-01T14:53:54Z</time>
      </trkpt>
      <trkpt lat="42.51858" lon="2.03088">
        <ele>1937.4</ele>
        <time>2019-08-01T14:53:59Z</time>
      </trkpt>
      <trkpt lat="42.51861" lon="2.03092">
        <ele>1932.8</ele>
        <time>2019-08-01T14:54:04Z</time>
      </trkpt>
      <trkpt lat="42.51864" lon="2.03097">
        <ele>1935.6</ele>
        <time>2019-08-01T14:54:09Z</time>
      </trkpt>
      <trkpt lat="42.51868" lon="2.03101">
        <ele>1936.4</ele>
        <time>2019-08-01T14:54:14Z</time>
      </trkpt>
      <trkpt lat="42.51872" lon="2.03105">
        <ele>1936.4</ele>
        <time>2019-08-01T14:54:19Z</time>
      </trkpt>
      <trkpt lat="42.51876" lon="2.0311">
        <ele>1937.2</ele>
        <time>2019-08-01T14:54:24Z</time>
      </trkpt>
      <trkpt lat="42.5188" lon="2.03113">
        <ele>1937</ele>
        <time>2019-08-01T14:54:29Z</time>
      </trkpt>
      <trkpt lat="42.51883" lon="2.03118">
        <ele>1934</ele>
        <time>2019-08-01T14:54:34Z</time>
      </trkpt>
      <trkpt lat="42.51887" lon="2.03123">
        <ele>1934.2</ele>
        <time>2019-08-01T14:54:39Z</time>
      </trkpt>
      <trkpt lat="42.5189" lon="2.03128">
        <ele>1934.6</ele>
        <time>2019-08-01T14:54:44Z</time>
      </trkpt>
      <trkpt lat="42.51894" lon="2.03132">
        <ele>1939.6</ele>
        <time>2019-08-01T14:54:49Z</time>
      </trkpt>
      <trkpt lat="42.51897" lon="2.03135">
        <ele>1938</ele>
        <time>2019-08-01T14:54:54Z</time>
      </trkpt>
      <trkpt lat="42.51901" lon="2.03138">
        <ele>1934.4</ele>
        <time>2019-08-01T14:54:59Z</time>
      </trkpt>
      <trkpt lat="42.51906" lon="2.0314">
        <ele>1938.4</ele>
        <time>2019-08-01T14:55:04Z</time>
      </trkpt>
      <trkpt lat="42.5191" lon="2.03142">
        <ele>1935.6</ele>
        <time>2019-08-01T14:55:09Z</time>
      </trkpt>
      <trkpt lat="42.51914" lon="2.03144">
        <ele>1941</ele>
        <time>2019-08-01T14:55:14Z</time>
      </trkpt>
      <trkpt lat="42.51917" lon="2.03145">
        <ele>1938.6</ele>
        <time>2019-08-01T14:55:19Z</time>
      </trkpt>
      <trkpt lat="42.5192" lon="2.03147">
        <ele>1940.2</ele>
        <time>2019-08-01T14:55:24Z</time>
      </trkpt>
      <trkpt lat="42.51924" lon="2.03149">
        <ele>1940.6</ele>
        <time>2019-08-01T14:55:29Z</time>
      </trkpt>
      <trkpt lat="42.51928" lon="2.0315">
        <ele>1941.4</ele>
        <time>2019-08-01T14:55:34Z</time>
      </trkpt>
      <trkpt lat="42.51933" lon="2.03152">
        <ele>1941.2</ele>
        <time>2019-08-01T14:55:39Z</time>
      </trkpt>
      <trkpt lat="42.51937" lon="2.03154">
        <ele>1945.4</ele>
        <time>2019-08-01T14:55:44Z</time>
      </trkpt>
      <trkpt lat="42.51941" lon="2.03157">
        <ele>1942</ele>
        <time>2019-08-01T14:55:49Z</time>
      </trkpt>
      <trkpt lat="42.51946" lon="2.03158">
        <ele>1942.2</ele>
        <time>2019-08-01T14:55:54Z</time>
      </trkpt>
      <trkpt lat="42.5195" lon="2.03159">
        <ele>1942.2</ele>
        <time>2019-08-01T14:55:59Z</time>
      </trkpt>
      <trkpt lat="42.51952" lon="2.03161">
        <ele>1945.4</ele>
        <time>2019-08-01T14:56:04Z</time>
      </trkpt>
      <trkpt lat="42.51955" lon="2.03162">
        <ele>1943.6</ele>
        <time>2019-08-01T14:56:09Z</time>
      </trkpt>
      <trkpt lat="42.51958" lon="2.03163">
        <ele>1943</ele>
        <time>2019-08-01T14:56:14Z</time>
      </trkpt>
      <trkpt lat="42.51958" lon="2.03164">
        <ele>1943.6</ele>
        <time>2019-08-01T14:56:19Z</time>
      </trkpt>
      <trkpt lat="42.5196" lon="2.03168">
        <ele>1944.4</ele>
        <time>2019-08-01T14:56:24Z</time>
      </trkpt>
      <trkpt lat="42.51962" lon="2.03172">
        <ele>1948.2</ele>
        <time>2019-08-01T14:56:29Z</time>
      </trkpt>
      <trkpt lat="42.51966" lon="2.03175">
        <ele>1943.6</ele>
        <time>2019-08-01T14:56:34Z</time>
      </trkpt>
      <trkpt lat="42.51968" lon="2.03179">
        <ele>1946</ele>
        <time>2019-08-01T14:56:39Z</time>
      </trkpt>
      <trkpt lat="42.51971" lon="2.03183">
        <ele>1944.8</ele>
        <time>2019-08-01T14:56:44Z</time>
      </trkpt>
      <trkpt lat="42.51973" lon="2.03187">
        <ele>1948.6</ele>
        <time>2019-08-01T14:56:49Z</time>
      </trkpt>
      <trkpt lat="42.51976" lon="2.0319">
        <ele>1947.8</ele>
        <time>2019-08-01T14:56:54Z</time>
      </trkpt>
      <trkpt lat="42.51977" lon="2.0319">
        <ele>1948</ele>
        <time>2019-08-01T14:57:09Z</time>
      </trkpt>
      <trkpt lat="42.51978" lon="2.03191">
        <ele>1945.6</ele>
        <time>2019-08-01T14:57:14Z</time>
      </trkpt>
      <trkpt lat="42.51982" lon="2.03193">
        <ele>1946.2</ele>
        <time>2019-08-01T14:57:19Z</time>
      </trkpt>
      <trkpt lat="42.51984" lon="2.03198">
        <ele>1946.4</ele>
        <time>2019-08-01T14:57:24Z</time>
      </trkpt>
      <trkpt lat="42.51986" lon="2.03203">
        <ele>1948.4</ele>
        <time>2019-08-01T14:57:29Z</time>
      </trkpt>
      <trkpt lat="42.51989" lon="2.03206">
        <ele>1950.6</ele>
        <time>2019-08-01T14:57:34Z</time>
      </trkpt>
      <trkpt lat="42.51991" lon="2.0321">
        <ele>1947.4</ele>
        <time>2019-08-01T14:57:39Z</time>
      </trkpt>
      <trkpt lat="42.51991" lon="2.03217">
        <ele>1949.8</ele>
        <time>2019-08-01T14:57:44Z</time>
      </trkpt>
      <trkpt lat="42.51992" lon="2.03223">
        <ele>1947.6</ele>
        <time>2019-08-01T14:57:49Z</time>
      </trkpt>
      <trkpt lat="42.51992" lon="2.0323">
        <ele>1947.6</ele>
        <time>2019-08-01T14:57:54Z</time>
      </trkpt>
      <trkpt lat="42.51992" lon="2.03236">
        <ele>1946.4</ele>
        <time>2019-08-01T14:57:59Z</time>
      </trkpt>
      <trkpt lat="42.51992" lon="2.03242">
        <ele>1950.8</ele>
        <time>2019-08-01T14:58:04Z</time>
      </trkpt>
      <trkpt lat="42.51993" lon="2.03249">
        <ele>1949.2</ele>
        <time>2019-08-01T14:58:09Z</time>
      </trkpt>
      <trkpt lat="42.51993" lon="2.03256">
        <ele>1947.8</ele>
        <time>2019-08-01T14:58:14Z</time>
      </trkpt>
      <trkpt lat="42.51993" lon="2.03258">
        <ele>1948</ele>
        <time>2019-08-01T14:58:19Z</time>
      </trkpt>
      <trkpt lat="42.51993" lon="2.03258">
        <ele>1947.4</ele>
        <time>2019-08-01T14:58:34Z</time>
      </trkpt>
    </trkseg>
  </trk>
</gpx>